<?xml version="1.0" encoding="UTF-8" standalone="no" ?>
<gpx xmlns="http://www.topografix.com/GPX/1/1" xmlns:xsi="http://www.w3.org/2001/XMLSchema-instance" xsi:schemaLocation="http://www.topografix.com/GPX/1/1 http://www.topografix.com/GPX/1/1/gpx.xsd" version="1.1" creator="VisuGPX - https://www.visugpx.com">
  <metadata>
    <name>Saint_Nazaire, etang du bois de Joalland</name>
    <desc><![CDATA[[b]Départ et arrivée[/b] : Quartier La Croix verte près du lac Joalland à Saint Nazaire (Loire Atlantique)
[b]Pour en savoir et voir plus[/b]
[url]https://portail-de-randos.fr/autres/Pays_de_Loire/Loire_Atlantique/la_sentiers/SaintNazaire_Joalland.htm[/url]

Cet itinéraire nous a été proposé par « Saint Nazaire la Renversante » qui fournit en téléchargement un plan en fiche pdf et une trace GPS.
Cirkwi sur sa page . https://www.cirkwi.com/fr/point-interet/275185-etang-du-bois-joalland est plus précis.

Voilà une balade fort appréciée par les nazairiens, même si le bruit de la départementale prouve que l'on n'est pas éloigné de la ville.

Bonne randonnée

Jean LM
]]></desc>
  </metadata>
  <trk>
    <name><![CDATA[Saint_Nazaire, etang du bois de Joalland]]></name>
    <trkseg>
      <trkpt lat="47.27937" lon="-2.26242">
        <ele>12.3</ele>
        <time>2023-03-25T07:27:04Z</time>
      </trkpt>
      <trkpt lat="47.27937" lon="-2.26242">
        <ele>12.3</ele>
        <time>2023-03-25T07:27:05Z</time>
      </trkpt>
      <trkpt lat="47.2793" lon="-2.26251">
        <ele>11.9</ele>
        <time>2023-03-25T07:28:13Z</time>
      </trkpt>
      <trkpt lat="47.27924" lon="-2.26261">
        <ele>11.8</ele>
        <time>2023-03-25T07:28:20Z</time>
      </trkpt>
      <trkpt lat="47.2793" lon="-2.26249">
        <ele>11.7</ele>
        <time>2023-03-25T07:28:52Z</time>
      </trkpt>
      <trkpt lat="47.27936" lon="-2.2624">
        <ele>12.1</ele>
        <time>2023-03-25T07:29:01Z</time>
      </trkpt>
      <trkpt lat="47.27929" lon="-2.2625">
        <ele>11.9</ele>
        <time>2023-03-25T07:30:12Z</time>
      </trkpt>
      <trkpt lat="47.27923" lon="-2.2626">
        <ele>11.7</ele>
        <time>2023-03-25T07:30:20Z</time>
      </trkpt>
      <trkpt lat="47.27916" lon="-2.26272">
        <ele>11.6</ele>
        <time>2023-03-25T07:30:28Z</time>
      </trkpt>
      <trkpt lat="47.27909" lon="-2.26281">
        <ele>11.5</ele>
        <time>2023-03-25T07:30:44Z</time>
      </trkpt>
      <trkpt lat="47.27902" lon="-2.26289">
        <ele>11</ele>
        <time>2023-03-25T07:31:23Z</time>
      </trkpt>
      <trkpt lat="47.27896" lon="-2.26302">
        <ele>11.2</ele>
        <time>2023-03-25T07:31:30Z</time>
      </trkpt>
      <trkpt lat="47.27889" lon="-2.26311">
        <ele>11.2</ele>
        <time>2023-03-25T07:31:37Z</time>
      </trkpt>
      <trkpt lat="47.27897" lon="-2.26303">
        <ele>11.5</ele>
        <time>2023-03-25T07:32:19Z</time>
      </trkpt>
      <trkpt lat="47.27904" lon="-2.26294">
        <ele>11.3</ele>
        <time>2023-03-25T07:32:29Z</time>
      </trkpt>
      <trkpt lat="47.27897" lon="-2.26302">
        <ele>11.1</ele>
        <time>2023-03-25T07:32:57Z</time>
      </trkpt>
      <trkpt lat="47.2789" lon="-2.26313">
        <ele>11</ele>
        <time>2023-03-25T07:33:08Z</time>
      </trkpt>
      <trkpt lat="47.27884" lon="-2.26324">
        <ele>10.9</ele>
        <time>2023-03-25T07:33:15Z</time>
      </trkpt>
      <trkpt lat="47.27878" lon="-2.26335">
        <ele>11.3</ele>
        <time>2023-03-25T07:33:23Z</time>
      </trkpt>
      <trkpt lat="47.27872" lon="-2.26345">
        <ele>11.6</ele>
        <time>2023-03-25T07:33:30Z</time>
      </trkpt>
      <trkpt lat="47.27866" lon="-2.26356">
        <ele>11</ele>
        <time>2023-03-25T07:33:39Z</time>
      </trkpt>
      <trkpt lat="47.2786" lon="-2.26367">
        <ele>10.8</ele>
        <time>2023-03-25T07:33:53Z</time>
      </trkpt>
      <trkpt lat="47.27853" lon="-2.26378">
        <ele>10.7</ele>
        <time>2023-03-25T07:34:01Z</time>
      </trkpt>
      <trkpt lat="47.27847" lon="-2.2639">
        <ele>10.6</ele>
        <time>2023-03-25T07:34:09Z</time>
      </trkpt>
      <trkpt lat="47.27841" lon="-2.264">
        <ele>10.9</ele>
        <time>2023-03-25T07:34:18Z</time>
      </trkpt>
      <trkpt lat="47.27835" lon="-2.2641">
        <ele>11.1</ele>
        <time>2023-03-25T07:34:26Z</time>
      </trkpt>
      <trkpt lat="47.27829" lon="-2.26424">
        <ele>11.1</ele>
        <time>2023-03-25T07:34:36Z</time>
      </trkpt>
      <trkpt lat="47.27823" lon="-2.26435">
        <ele>10.8</ele>
        <time>2023-03-25T07:34:43Z</time>
      </trkpt>
      <trkpt lat="47.27817" lon="-2.26446">
        <ele>10.6</ele>
        <time>2023-03-25T07:34:51Z</time>
      </trkpt>
      <trkpt lat="47.2781" lon="-2.26454">
        <ele>10.5</ele>
        <time>2023-03-25T07:34:59Z</time>
      </trkpt>
      <trkpt lat="47.27802" lon="-2.26462">
        <ele>10.4</ele>
        <time>2023-03-25T07:35:08Z</time>
      </trkpt>
      <trkpt lat="47.27793" lon="-2.26469">
        <ele>10.3</ele>
        <time>2023-03-25T07:35:16Z</time>
      </trkpt>
      <trkpt lat="47.27787" lon="-2.26479">
        <ele>10.3</ele>
        <time>2023-03-25T07:35:24Z</time>
      </trkpt>
      <trkpt lat="47.2778" lon="-2.26489">
        <ele>10.4</ele>
        <time>2023-03-25T07:35:30Z</time>
      </trkpt>
      <trkpt lat="47.27774" lon="-2.26499">
        <ele>10.7</ele>
        <time>2023-03-25T07:35:38Z</time>
      </trkpt>
      <trkpt lat="47.27765" lon="-2.26505">
        <ele>10.9</ele>
        <time>2023-03-25T07:35:46Z</time>
      </trkpt>
      <trkpt lat="47.27756" lon="-2.2651">
        <ele>10.8</ele>
        <time>2023-03-25T07:35:55Z</time>
      </trkpt>
      <trkpt lat="47.27746" lon="-2.26514">
        <ele>10.6</ele>
        <time>2023-03-25T07:36:03Z</time>
      </trkpt>
      <trkpt lat="47.27737" lon="-2.26518">
        <ele>10.5</ele>
        <time>2023-03-25T07:36:11Z</time>
      </trkpt>
      <trkpt lat="47.27728" lon="-2.26513">
        <ele>10.2</ele>
        <time>2023-03-25T07:36:19Z</time>
      </trkpt>
      <trkpt lat="47.27722" lon="-2.26501">
        <ele>10.1</ele>
        <time>2023-03-25T07:36:29Z</time>
      </trkpt>
      <trkpt lat="47.27716" lon="-2.2649">
        <ele>10.2</ele>
        <time>2023-03-25T07:36:46Z</time>
      </trkpt>
      <trkpt lat="47.27712" lon="-2.26478">
        <ele>10.4</ele>
        <time>2023-03-25T07:36:56Z</time>
      </trkpt>
      <trkpt lat="47.27709" lon="-2.26464">
        <ele>10.2</ele>
        <time>2023-03-25T07:37:07Z</time>
      </trkpt>
      <trkpt lat="47.27703" lon="-2.26453">
        <ele>10.1</ele>
        <time>2023-03-25T07:37:45Z</time>
      </trkpt>
      <trkpt lat="47.27698" lon="-2.26442">
        <ele>9.9</ele>
        <time>2023-03-25T07:37:55Z</time>
      </trkpt>
      <trkpt lat="47.27694" lon="-2.2643">
        <ele>9.8</ele>
        <time>2023-03-25T07:38:04Z</time>
      </trkpt>
      <trkpt lat="47.27691" lon="-2.26417">
        <ele>9.7</ele>
        <time>2023-03-25T07:38:13Z</time>
      </trkpt>
      <trkpt lat="47.27686" lon="-2.26405">
        <ele>9.7</ele>
        <time>2023-03-25T07:38:21Z</time>
      </trkpt>
      <trkpt lat="47.2768" lon="-2.26392">
        <ele>9.6</ele>
        <time>2023-03-25T07:38:28Z</time>
      </trkpt>
      <trkpt lat="47.27675" lon="-2.26379">
        <ele>9.7</ele>
        <time>2023-03-25T07:38:35Z</time>
      </trkpt>
      <trkpt lat="47.2767" lon="-2.26367">
        <ele>9.7</ele>
        <time>2023-03-25T07:38:42Z</time>
      </trkpt>
      <trkpt lat="47.27667" lon="-2.26354">
        <ele>9.6</ele>
        <time>2023-03-25T07:38:54Z</time>
      </trkpt>
      <trkpt lat="47.27667" lon="-2.26341">
        <ele>9.6</ele>
        <time>2023-03-25T07:39:42Z</time>
      </trkpt>
      <trkpt lat="47.27665" lon="-2.26327">
        <ele>9.6</ele>
        <time>2023-03-25T07:39:53Z</time>
      </trkpt>
      <trkpt lat="47.27674" lon="-2.26323">
        <ele>9.3</ele>
        <time>2023-03-25T07:40:34Z</time>
      </trkpt>
      <trkpt lat="47.2767" lon="-2.26309">
        <ele>9.5</ele>
        <time>2023-03-25T07:40:53Z</time>
      </trkpt>
      <trkpt lat="47.27671" lon="-2.26296">
        <ele>9.6</ele>
        <time>2023-03-25T07:41:02Z</time>
      </trkpt>
      <trkpt lat="47.27672" lon="-2.26281">
        <ele>9.9</ele>
        <time>2023-03-25T07:41:11Z</time>
      </trkpt>
      <trkpt lat="47.27674" lon="-2.26267">
        <ele>10.2</ele>
        <time>2023-03-25T07:41:29Z</time>
      </trkpt>
      <trkpt lat="47.27675" lon="-2.26253">
        <ele>10.2</ele>
        <time>2023-03-25T07:41:37Z</time>
      </trkpt>
      <trkpt lat="47.27679" lon="-2.26241">
        <ele>10.3</ele>
        <time>2023-03-25T07:41:44Z</time>
      </trkpt>
      <trkpt lat="47.27681" lon="-2.26226">
        <ele>10.2</ele>
        <time>2023-03-25T07:41:51Z</time>
      </trkpt>
      <trkpt lat="47.27684" lon="-2.26214">
        <ele>10.1</ele>
        <time>2023-03-25T07:41:58Z</time>
      </trkpt>
      <trkpt lat="47.27688" lon="-2.262">
        <ele>10.2</ele>
        <time>2023-03-25T07:42:06Z</time>
      </trkpt>
      <trkpt lat="47.27692" lon="-2.26189">
        <ele>10.2</ele>
        <time>2023-03-25T07:42:12Z</time>
      </trkpt>
      <trkpt lat="47.27696" lon="-2.26177">
        <ele>10.3</ele>
        <time>2023-03-25T07:42:21Z</time>
      </trkpt>
      <trkpt lat="47.27699" lon="-2.26162">
        <ele>10.3</ele>
        <time>2023-03-25T07:42:31Z</time>
      </trkpt>
      <trkpt lat="47.27703" lon="-2.26151">
        <ele>9.9</ele>
        <time>2023-03-25T07:42:40Z</time>
      </trkpt>
      <trkpt lat="47.27704" lon="-2.26136">
        <ele>9.8</ele>
        <time>2023-03-25T07:42:50Z</time>
      </trkpt>
      <trkpt lat="47.27707" lon="-2.26123">
        <ele>9.9</ele>
        <time>2023-03-25T07:42:59Z</time>
      </trkpt>
      <trkpt lat="47.27708" lon="-2.26109">
        <ele>9.6</ele>
        <time>2023-03-25T07:43:08Z</time>
      </trkpt>
      <trkpt lat="47.27711" lon="-2.26096">
        <ele>9.5</ele>
        <time>2023-03-25T07:43:17Z</time>
      </trkpt>
      <trkpt lat="47.27709" lon="-2.26083">
        <ele>9.3</ele>
        <time>2023-03-25T07:43:25Z</time>
      </trkpt>
      <trkpt lat="47.27707" lon="-2.26069">
        <ele>9.3</ele>
        <time>2023-03-25T07:43:37Z</time>
      </trkpt>
      <trkpt lat="47.27703" lon="-2.26056">
        <ele>9.3</ele>
        <time>2023-03-25T07:43:46Z</time>
      </trkpt>
      <trkpt lat="47.277" lon="-2.26043">
        <ele>9.7</ele>
        <time>2023-03-25T07:43:54Z</time>
      </trkpt>
      <trkpt lat="47.27698" lon="-2.2603">
        <ele>10</ele>
        <time>2023-03-25T07:44:03Z</time>
      </trkpt>
      <trkpt lat="47.27694" lon="-2.26017">
        <ele>10</ele>
        <time>2023-03-25T07:44:12Z</time>
      </trkpt>
      <trkpt lat="47.27691" lon="-2.26004">
        <ele>10</ele>
        <time>2023-03-25T07:44:20Z</time>
      </trkpt>
      <trkpt lat="47.2769" lon="-2.25991">
        <ele>10.1</ele>
        <time>2023-03-25T07:44:27Z</time>
      </trkpt>
      <trkpt lat="47.27687" lon="-2.25978">
        <ele>10.2</ele>
        <time>2023-03-25T07:44:34Z</time>
      </trkpt>
      <trkpt lat="47.27681" lon="-2.25969">
        <ele>10.5</ele>
        <time>2023-03-25T07:44:42Z</time>
      </trkpt>
      <trkpt lat="47.27673" lon="-2.2596">
        <ele>10.4</ele>
        <time>2023-03-25T07:44:50Z</time>
      </trkpt>
      <trkpt lat="47.27665" lon="-2.25952">
        <ele>10.5</ele>
        <time>2023-03-25T07:44:58Z</time>
      </trkpt>
      <trkpt lat="47.27659" lon="-2.25941">
        <ele>10.5</ele>
        <time>2023-03-25T07:45:07Z</time>
      </trkpt>
      <trkpt lat="47.27653" lon="-2.25929">
        <ele>10.4</ele>
        <time>2023-03-25T07:45:15Z</time>
      </trkpt>
      <trkpt lat="47.27647" lon="-2.25918">
        <ele>10.6</ele>
        <time>2023-03-25T07:45:25Z</time>
      </trkpt>
      <trkpt lat="47.27641" lon="-2.25907">
        <ele>10.6</ele>
        <time>2023-03-25T07:45:33Z</time>
      </trkpt>
      <trkpt lat="47.27636" lon="-2.25896">
        <ele>10.6</ele>
        <time>2023-03-25T07:45:41Z</time>
      </trkpt>
      <trkpt lat="47.2763" lon="-2.25884">
        <ele>10.7</ele>
        <time>2023-03-25T07:45:49Z</time>
      </trkpt>
      <trkpt lat="47.27624" lon="-2.25873">
        <ele>10.6</ele>
        <time>2023-03-25T07:46:07Z</time>
      </trkpt>
      <trkpt lat="47.27617" lon="-2.25863">
        <ele>10.8</ele>
        <time>2023-03-25T07:46:23Z</time>
      </trkpt>
      <trkpt lat="47.27611" lon="-2.25853">
        <ele>11.1</ele>
        <time>2023-03-25T07:46:31Z</time>
      </trkpt>
      <trkpt lat="47.27605" lon="-2.25842">
        <ele>11.4</ele>
        <time>2023-03-25T07:46:40Z</time>
      </trkpt>
      <trkpt lat="47.27599" lon="-2.25831">
        <ele>11.5</ele>
        <time>2023-03-25T07:46:48Z</time>
      </trkpt>
      <trkpt lat="47.27595" lon="-2.25818">
        <ele>11.6</ele>
        <time>2023-03-25T07:46:56Z</time>
      </trkpt>
      <trkpt lat="47.27594" lon="-2.25804">
        <ele>11.7</ele>
        <time>2023-03-25T07:47:04Z</time>
      </trkpt>
      <trkpt lat="47.27595" lon="-2.25791">
        <ele>11.9</ele>
        <time>2023-03-25T07:47:11Z</time>
      </trkpt>
      <trkpt lat="47.27598" lon="-2.25777">
        <ele>11.7</ele>
        <time>2023-03-25T07:47:19Z</time>
      </trkpt>
      <trkpt lat="47.27598" lon="-2.25764">
        <ele>11.8</ele>
        <time>2023-03-25T07:47:27Z</time>
      </trkpt>
      <trkpt lat="47.27601" lon="-2.25751">
        <ele>11.5</ele>
        <time>2023-03-25T07:47:52Z</time>
      </trkpt>
      <trkpt lat="47.27601" lon="-2.25736">
        <ele>11.5</ele>
        <time>2023-03-25T07:48:05Z</time>
      </trkpt>
      <trkpt lat="47.27597" lon="-2.25723">
        <ele>11.5</ele>
        <time>2023-03-25T07:48:14Z</time>
      </trkpt>
      <trkpt lat="47.27594" lon="-2.25711">
        <ele>11.4</ele>
        <time>2023-03-25T07:48:22Z</time>
      </trkpt>
      <trkpt lat="47.27588" lon="-2.25699">
        <ele>11.2</ele>
        <time>2023-03-25T07:48:31Z</time>
      </trkpt>
      <trkpt lat="47.27582" lon="-2.25688">
        <ele>11</ele>
        <time>2023-03-25T07:48:40Z</time>
      </trkpt>
      <trkpt lat="47.27579" lon="-2.25675">
        <ele>10.9</ele>
        <time>2023-03-25T07:48:48Z</time>
      </trkpt>
      <trkpt lat="47.27573" lon="-2.25664">
        <ele>10.9</ele>
        <time>2023-03-25T07:48:56Z</time>
      </trkpt>
      <trkpt lat="47.27568" lon="-2.25651">
        <ele>11.2</ele>
        <time>2023-03-25T07:49:06Z</time>
      </trkpt>
      <trkpt lat="47.27568" lon="-2.25637">
        <ele>11.3</ele>
        <time>2023-03-25T07:49:13Z</time>
      </trkpt>
      <trkpt lat="47.27566" lon="-2.25623">
        <ele>11.1</ele>
        <time>2023-03-25T07:49:20Z</time>
      </trkpt>
      <trkpt lat="47.27565" lon="-2.25608">
        <ele>11</ele>
        <time>2023-03-25T07:49:39Z</time>
      </trkpt>
      <trkpt lat="47.27565" lon="-2.25595">
        <ele>10.9</ele>
        <time>2023-03-25T07:49:48Z</time>
      </trkpt>
      <trkpt lat="47.27563" lon="-2.2558">
        <ele>10.6</ele>
        <time>2023-03-25T07:49:58Z</time>
      </trkpt>
      <trkpt lat="47.27561" lon="-2.25567">
        <ele>10.2</ele>
        <time>2023-03-25T07:50:06Z</time>
      </trkpt>
      <trkpt lat="47.27558" lon="-2.25554">
        <ele>10</ele>
        <time>2023-03-25T07:50:15Z</time>
      </trkpt>
      <trkpt lat="47.27555" lon="-2.25541">
        <ele>10</ele>
        <time>2023-03-25T07:50:22Z</time>
      </trkpt>
      <trkpt lat="47.2755" lon="-2.25529">
        <ele>10</ele>
        <time>2023-03-25T07:50:31Z</time>
      </trkpt>
      <trkpt lat="47.27546" lon="-2.25517">
        <ele>9.9</ele>
        <time>2023-03-25T07:50:40Z</time>
      </trkpt>
      <trkpt lat="47.27544" lon="-2.25504">
        <ele>9.9</ele>
        <time>2023-03-25T07:50:50Z</time>
      </trkpt>
      <trkpt lat="47.27539" lon="-2.25492">
        <ele>10.2</ele>
        <time>2023-03-25T07:51:06Z</time>
      </trkpt>
      <trkpt lat="47.27531" lon="-2.25483">
        <ele>9.9</ele>
        <time>2023-03-25T07:51:14Z</time>
      </trkpt>
      <trkpt lat="47.27524" lon="-2.25475">
        <ele>9.9</ele>
        <time>2023-03-25T07:51:23Z</time>
      </trkpt>
      <trkpt lat="47.27517" lon="-2.25467">
        <ele>10</ele>
        <time>2023-03-25T07:51:30Z</time>
      </trkpt>
      <trkpt lat="47.27509" lon="-2.25461">
        <ele>9.9</ele>
        <time>2023-03-25T07:51:38Z</time>
      </trkpt>
      <trkpt lat="47.275" lon="-2.25453">
        <ele>9.9</ele>
        <time>2023-03-25T07:51:52Z</time>
      </trkpt>
      <trkpt lat="47.27491" lon="-2.25452">
        <ele>9.9</ele>
        <time>2023-03-25T07:52:02Z</time>
      </trkpt>
      <trkpt lat="47.27482" lon="-2.25457">
        <ele>9.2</ele>
        <time>2023-03-25T07:52:14Z</time>
      </trkpt>
      <trkpt lat="47.27473" lon="-2.25455">
        <ele>10</ele>
        <time>2023-03-25T07:52:25Z</time>
      </trkpt>
      <trkpt lat="47.27464" lon="-2.25451">
        <ele>10.1</ele>
        <time>2023-03-25T07:52:33Z</time>
      </trkpt>
      <trkpt lat="47.27454" lon="-2.25446">
        <ele>10.2</ele>
        <time>2023-03-25T07:52:42Z</time>
      </trkpt>
      <trkpt lat="47.27446" lon="-2.2544">
        <ele>10.1</ele>
        <time>2023-03-25T07:52:56Z</time>
      </trkpt>
      <trkpt lat="47.27438" lon="-2.25433">
        <ele>10.1</ele>
        <time>2023-03-25T07:53:16Z</time>
      </trkpt>
      <trkpt lat="47.2744" lon="-2.25419">
        <ele>10</ele>
        <time>2023-03-25T07:53:28Z</time>
      </trkpt>
      <trkpt lat="47.27443" lon="-2.25406">
        <ele>10.1</ele>
        <time>2023-03-25T07:53:38Z</time>
      </trkpt>
      <trkpt lat="47.27444" lon="-2.25393">
        <ele>10.2</ele>
        <time>2023-03-25T07:53:53Z</time>
      </trkpt>
      <trkpt lat="47.27444" lon="-2.25379">
        <ele>10.2</ele>
        <time>2023-03-25T07:54:00Z</time>
      </trkpt>
      <trkpt lat="47.27446" lon="-2.25365">
        <ele>9.9</ele>
        <time>2023-03-25T07:54:08Z</time>
      </trkpt>
      <trkpt lat="47.27454" lon="-2.25358">
        <ele>10.1</ele>
        <time>2023-03-25T07:54:26Z</time>
      </trkpt>
      <trkpt lat="47.27453" lon="-2.25344">
        <ele>10.3</ele>
        <time>2023-03-25T07:54:54Z</time>
      </trkpt>
      <trkpt lat="47.27452" lon="-2.2533">
        <ele>10.6</ele>
        <time>2023-03-25T07:55:03Z</time>
      </trkpt>
      <trkpt lat="47.27449" lon="-2.25315">
        <ele>10.5</ele>
        <time>2023-03-25T07:55:10Z</time>
      </trkpt>
      <trkpt lat="47.27444" lon="-2.25304">
        <ele>10.5</ele>
        <time>2023-03-25T07:55:17Z</time>
      </trkpt>
      <trkpt lat="47.27438" lon="-2.25292">
        <ele>10.2</ele>
        <time>2023-03-25T07:55:26Z</time>
      </trkpt>
      <trkpt lat="47.27432" lon="-2.25281">
        <ele>10</ele>
        <time>2023-03-25T07:55:36Z</time>
      </trkpt>
      <trkpt lat="47.27427" lon="-2.25269">
        <ele>9.7</ele>
        <time>2023-03-25T07:55:44Z</time>
      </trkpt>
      <trkpt lat="47.27422" lon="-2.25256">
        <ele>9.8</ele>
        <time>2023-03-25T07:55:51Z</time>
      </trkpt>
      <trkpt lat="47.27417" lon="-2.25243">
        <ele>9.9</ele>
        <time>2023-03-25T07:55:58Z</time>
      </trkpt>
      <trkpt lat="47.27411" lon="-2.25231">
        <ele>9.9</ele>
        <time>2023-03-25T07:56:06Z</time>
      </trkpt>
      <trkpt lat="47.27406" lon="-2.25219">
        <ele>9.9</ele>
        <time>2023-03-25T07:56:14Z</time>
      </trkpt>
      <trkpt lat="47.274" lon="-2.25207">
        <ele>10.1</ele>
        <time>2023-03-25T07:56:22Z</time>
      </trkpt>
      <trkpt lat="47.27395" lon="-2.25194">
        <ele>10.2</ele>
        <time>2023-03-25T07:56:30Z</time>
      </trkpt>
      <trkpt lat="47.2739" lon="-2.25182">
        <ele>10.1</ele>
        <time>2023-03-25T07:56:39Z</time>
      </trkpt>
      <trkpt lat="47.27386" lon="-2.2517">
        <ele>10.2</ele>
        <time>2023-03-25T07:56:47Z</time>
      </trkpt>
      <trkpt lat="47.27381" lon="-2.25158">
        <ele>10.4</ele>
        <time>2023-03-25T07:56:58Z</time>
      </trkpt>
      <trkpt lat="47.27375" lon="-2.25146">
        <ele>10.5</ele>
        <time>2023-03-25T07:57:08Z</time>
      </trkpt>
      <trkpt lat="47.27369" lon="-2.25135">
        <ele>10.7</ele>
        <time>2023-03-25T07:57:16Z</time>
      </trkpt>
      <trkpt lat="47.27364" lon="-2.25121">
        <ele>10.6</ele>
        <time>2023-03-25T07:57:23Z</time>
      </trkpt>
      <trkpt lat="47.27359" lon="-2.25108">
        <ele>10.5</ele>
        <time>2023-03-25T07:57:31Z</time>
      </trkpt>
      <trkpt lat="47.27355" lon="-2.25095">
        <ele>10.5</ele>
        <time>2023-03-25T07:57:39Z</time>
      </trkpt>
      <trkpt lat="47.27352" lon="-2.25082">
        <ele>10.7</ele>
        <time>2023-03-25T07:58:24Z</time>
      </trkpt>
      <trkpt lat="47.27348" lon="-2.2507">
        <ele>10.3</ele>
        <time>2023-03-25T07:58:33Z</time>
      </trkpt>
      <trkpt lat="47.27345" lon="-2.25056">
        <ele>10.2</ele>
        <time>2023-03-25T07:58:42Z</time>
      </trkpt>
      <trkpt lat="47.2734" lon="-2.25045">
        <ele>10.2</ele>
        <time>2023-03-25T07:59:12Z</time>
      </trkpt>
      <trkpt lat="47.27335" lon="-2.25033">
        <ele>10.1</ele>
        <time>2023-03-25T07:59:25Z</time>
      </trkpt>
      <trkpt lat="47.27332" lon="-2.2502">
        <ele>10</ele>
        <time>2023-03-25T07:59:34Z</time>
      </trkpt>
      <trkpt lat="47.27329" lon="-2.25005">
        <ele>9.7</ele>
        <time>2023-03-25T07:59:42Z</time>
      </trkpt>
      <trkpt lat="47.27335" lon="-2.24995">
        <ele>9.7</ele>
        <time>2023-03-25T07:59:49Z</time>
      </trkpt>
      <trkpt lat="47.27338" lon="-2.24981">
        <ele>9.6</ele>
        <time>2023-03-25T07:59:59Z</time>
      </trkpt>
      <trkpt lat="47.27343" lon="-2.2497">
        <ele>9.3</ele>
        <time>2023-03-25T08:00:17Z</time>
      </trkpt>
      <trkpt lat="47.2735" lon="-2.24962">
        <ele>9.2</ele>
        <time>2023-03-25T08:00:34Z</time>
      </trkpt>
      <trkpt lat="47.27357" lon="-2.24953">
        <ele>9</ele>
        <time>2023-03-25T08:00:45Z</time>
      </trkpt>
      <trkpt lat="47.27363" lon="-2.24942">
        <ele>9</ele>
        <time>2023-03-25T08:00:53Z</time>
      </trkpt>
      <trkpt lat="47.2737" lon="-2.24933">
        <ele>8.9</ele>
        <time>2023-03-25T08:01:01Z</time>
      </trkpt>
      <trkpt lat="47.27378" lon="-2.24926">
        <ele>8.8</ele>
        <time>2023-03-25T08:01:08Z</time>
      </trkpt>
      <trkpt lat="47.27385" lon="-2.24915">
        <ele>8.8</ele>
        <time>2023-03-25T08:01:16Z</time>
      </trkpt>
      <trkpt lat="47.27392" lon="-2.24906">
        <ele>9</ele>
        <time>2023-03-25T08:01:24Z</time>
      </trkpt>
      <trkpt lat="47.27399" lon="-2.24897">
        <ele>9.1</ele>
        <time>2023-03-25T08:01:33Z</time>
      </trkpt>
      <trkpt lat="47.27406" lon="-2.24887">
        <ele>9.3</ele>
        <time>2023-03-25T08:01:43Z</time>
      </trkpt>
      <trkpt lat="47.27412" lon="-2.24875">
        <ele>9.2</ele>
        <time>2023-03-25T08:01:56Z</time>
      </trkpt>
      <trkpt lat="47.27421" lon="-2.24867">
        <ele>9.1</ele>
        <time>2023-03-25T08:02:04Z</time>
      </trkpt>
      <trkpt lat="47.27423" lon="-2.24852">
        <ele>9</ele>
        <time>2023-03-25T08:02:12Z</time>
      </trkpt>
      <trkpt lat="47.27424" lon="-2.24839">
        <ele>9</ele>
        <time>2023-03-25T08:02:17Z</time>
      </trkpt>
      <trkpt lat="47.27427" lon="-2.24825">
        <ele>9</ele>
        <time>2023-03-25T08:02:22Z</time>
      </trkpt>
      <trkpt lat="47.27431" lon="-2.24812">
        <ele>9.3</ele>
        <time>2023-03-25T08:02:29Z</time>
      </trkpt>
      <trkpt lat="47.27437" lon="-2.24803">
        <ele>9.6</ele>
        <time>2023-03-25T08:02:36Z</time>
      </trkpt>
      <trkpt lat="47.27443" lon="-2.24792">
        <ele>10</ele>
        <time>2023-03-25T08:02:44Z</time>
      </trkpt>
      <trkpt lat="47.27451" lon="-2.24786">
        <ele>10.8</ele>
        <time>2023-03-25T08:02:56Z</time>
      </trkpt>
      <trkpt lat="47.2746" lon="-2.24781">
        <ele>11.8</ele>
        <time>2023-03-25T08:03:06Z</time>
      </trkpt>
      <trkpt lat="47.27469" lon="-2.24781">
        <ele>13.1</ele>
        <time>2023-03-25T08:03:18Z</time>
      </trkpt>
      <trkpt lat="47.27478" lon="-2.24784">
        <ele>13.9</ele>
        <time>2023-03-25T08:03:28Z</time>
      </trkpt>
      <trkpt lat="47.27487" lon="-2.24785">
        <ele>14.5</ele>
        <time>2023-03-25T08:03:37Z</time>
      </trkpt>
      <trkpt lat="47.27497" lon="-2.24785">
        <ele>15</ele>
        <time>2023-03-25T08:03:46Z</time>
      </trkpt>
      <trkpt lat="47.27506" lon="-2.24785">
        <ele>15.9</ele>
        <time>2023-03-25T08:03:58Z</time>
      </trkpt>
      <trkpt lat="47.27516" lon="-2.24784">
        <ele>16</ele>
        <time>2023-03-25T08:04:09Z</time>
      </trkpt>
      <trkpt lat="47.27525" lon="-2.24785">
        <ele>15.8</ele>
        <time>2023-03-25T08:04:17Z</time>
      </trkpt>
      <trkpt lat="47.27534" lon="-2.24784">
        <ele>16</ele>
        <time>2023-03-25T08:04:26Z</time>
      </trkpt>
      <trkpt lat="47.27543" lon="-2.24785">
        <ele>16.2</ele>
        <time>2023-03-25T08:04:35Z</time>
      </trkpt>
      <trkpt lat="47.27553" lon="-2.24785">
        <ele>16.6</ele>
        <time>2023-03-25T08:04:45Z</time>
      </trkpt>
      <trkpt lat="47.27562" lon="-2.24788">
        <ele>16.7</ele>
        <time>2023-03-25T08:05:01Z</time>
      </trkpt>
      <trkpt lat="47.27572" lon="-2.24788">
        <ele>16.7</ele>
        <time>2023-03-25T08:05:08Z</time>
      </trkpt>
      <trkpt lat="47.27581" lon="-2.24787">
        <ele>16.7</ele>
        <time>2023-03-25T08:05:16Z</time>
      </trkpt>
      <trkpt lat="47.2759" lon="-2.24788">
        <ele>17</ele>
        <time>2023-03-25T08:05:23Z</time>
      </trkpt>
      <trkpt lat="47.27601" lon="-2.24789">
        <ele>17.5</ele>
        <time>2023-03-25T08:05:30Z</time>
      </trkpt>
      <trkpt lat="47.2761" lon="-2.24786">
        <ele>17.6</ele>
        <time>2023-03-25T08:05:38Z</time>
      </trkpt>
      <trkpt lat="47.2762" lon="-2.24784">
        <ele>17.6</ele>
        <time>2023-03-25T08:05:47Z</time>
      </trkpt>
      <trkpt lat="47.2763" lon="-2.24784">
        <ele>17.3</ele>
        <time>2023-03-25T08:05:55Z</time>
      </trkpt>
      <trkpt lat="47.27639" lon="-2.24785">
        <ele>17.4</ele>
        <time>2023-03-25T08:06:03Z</time>
      </trkpt>
      <trkpt lat="47.27648" lon="-2.24788">
        <ele>17.3</ele>
        <time>2023-03-25T08:06:12Z</time>
      </trkpt>
      <trkpt lat="47.27657" lon="-2.24793">
        <ele>16.5</ele>
        <time>2023-03-25T08:06:19Z</time>
      </trkpt>
      <trkpt lat="47.27667" lon="-2.24798">
        <ele>16</ele>
        <time>2023-03-25T08:06:26Z</time>
      </trkpt>
      <trkpt lat="47.27676" lon="-2.24801">
        <ele>16.4</ele>
        <time>2023-03-25T08:06:51Z</time>
      </trkpt>
      <trkpt lat="47.27685" lon="-2.24802">
        <ele>16.2</ele>
        <time>2023-03-25T08:06:59Z</time>
      </trkpt>
      <trkpt lat="47.27694" lon="-2.24801">
        <ele>16.5</ele>
        <time>2023-03-25T08:07:12Z</time>
      </trkpt>
      <trkpt lat="47.27705" lon="-2.24802">
        <ele>16.5</ele>
        <time>2023-03-25T08:07:20Z</time>
      </trkpt>
      <trkpt lat="47.27714" lon="-2.24801">
        <ele>16.7</ele>
        <time>2023-03-25T08:07:27Z</time>
      </trkpt>
      <trkpt lat="47.27724" lon="-2.24801">
        <ele>16.4</ele>
        <time>2023-03-25T08:07:34Z</time>
      </trkpt>
      <trkpt lat="47.27733" lon="-2.24801">
        <ele>16.5</ele>
        <time>2023-03-25T08:07:40Z</time>
      </trkpt>
      <trkpt lat="47.27742" lon="-2.24801">
        <ele>16.5</ele>
        <time>2023-03-25T08:07:47Z</time>
      </trkpt>
      <trkpt lat="47.27751" lon="-2.248">
        <ele>16.7</ele>
        <time>2023-03-25T08:07:54Z</time>
      </trkpt>
      <trkpt lat="47.27761" lon="-2.248">
        <ele>16.7</ele>
        <time>2023-03-25T08:08:01Z</time>
      </trkpt>
      <trkpt lat="47.27771" lon="-2.248">
        <ele>16.7</ele>
        <time>2023-03-25T08:08:09Z</time>
      </trkpt>
      <trkpt lat="47.27781" lon="-2.24799">
        <ele>16.9</ele>
        <time>2023-03-25T08:08:17Z</time>
      </trkpt>
      <trkpt lat="47.27791" lon="-2.24799">
        <ele>16.8</ele>
        <time>2023-03-25T08:08:25Z</time>
      </trkpt>
      <trkpt lat="47.278" lon="-2.24798">
        <ele>17.2</ele>
        <time>2023-03-25T08:08:33Z</time>
      </trkpt>
      <trkpt lat="47.27809" lon="-2.24798">
        <ele>17</ele>
        <time>2023-03-25T08:08:42Z</time>
      </trkpt>
      <trkpt lat="47.27819" lon="-2.248">
        <ele>17.3</ele>
        <time>2023-03-25T08:08:52Z</time>
      </trkpt>
      <trkpt lat="47.27828" lon="-2.24797">
        <ele>17</ele>
        <time>2023-03-25T08:09:01Z</time>
      </trkpt>
      <trkpt lat="47.27838" lon="-2.24797">
        <ele>16.4</ele>
        <time>2023-03-25T08:09:15Z</time>
      </trkpt>
      <trkpt lat="47.27847" lon="-2.2479">
        <ele>16.3</ele>
        <time>2023-03-25T08:09:23Z</time>
      </trkpt>
      <trkpt lat="47.27854" lon="-2.24782">
        <ele>16.4</ele>
        <time>2023-03-25T08:09:31Z</time>
      </trkpt>
      <trkpt lat="47.27862" lon="-2.24773">
        <ele>16.7</ele>
        <time>2023-03-25T08:09:41Z</time>
      </trkpt>
      <trkpt lat="47.27871" lon="-2.24773">
        <ele>16.6</ele>
        <time>2023-03-25T08:09:47Z</time>
      </trkpt>
      <trkpt lat="47.2788" lon="-2.2477">
        <ele>16.6</ele>
        <time>2023-03-25T08:10:00Z</time>
      </trkpt>
      <trkpt lat="47.27889" lon="-2.24765">
        <ele>18</ele>
        <time>2023-03-25T08:10:12Z</time>
      </trkpt>
      <trkpt lat="47.27899" lon="-2.24764">
        <ele>19.3</ele>
        <time>2023-03-25T08:10:25Z</time>
      </trkpt>
      <trkpt lat="47.2791" lon="-2.24764">
        <ele>20.3</ele>
        <time>2023-03-25T08:10:33Z</time>
      </trkpt>
      <trkpt lat="47.27919" lon="-2.24763">
        <ele>21.4</ele>
        <time>2023-03-25T08:10:52Z</time>
      </trkpt>
      <trkpt lat="47.27925" lon="-2.24772">
        <ele>21.1</ele>
        <time>2023-03-25T08:11:04Z</time>
      </trkpt>
      <trkpt lat="47.27931" lon="-2.24783">
        <ele>20.9</ele>
        <time>2023-03-25T08:11:13Z</time>
      </trkpt>
      <trkpt lat="47.27938" lon="-2.24792">
        <ele>22.1</ele>
        <time>2023-03-25T08:11:22Z</time>
      </trkpt>
      <trkpt lat="47.27947" lon="-2.24794">
        <ele>23.2</ele>
        <time>2023-03-25T08:11:32Z</time>
      </trkpt>
      <trkpt lat="47.27956" lon="-2.24797">
        <ele>23.7</ele>
        <time>2023-03-25T08:11:41Z</time>
      </trkpt>
      <trkpt lat="47.27965" lon="-2.24799">
        <ele>24.4</ele>
        <time>2023-03-25T08:11:49Z</time>
      </trkpt>
      <trkpt lat="47.27975" lon="-2.24799">
        <ele>25</ele>
        <time>2023-03-25T08:11:57Z</time>
      </trkpt>
      <trkpt lat="47.27984" lon="-2.24799">
        <ele>25.3</ele>
        <time>2023-03-25T08:12:05Z</time>
      </trkpt>
      <trkpt lat="47.27994" lon="-2.24799">
        <ele>25.4</ele>
        <time>2023-03-25T08:12:13Z</time>
      </trkpt>
      <trkpt lat="47.28004" lon="-2.24799">
        <ele>25.4</ele>
        <time>2023-03-25T08:12:21Z</time>
      </trkpt>
      <trkpt lat="47.28013" lon="-2.24795">
        <ele>24.5</ele>
        <time>2023-03-25T08:12:30Z</time>
      </trkpt>
      <trkpt lat="47.28022" lon="-2.24795">
        <ele>23.5</ele>
        <time>2023-03-25T08:12:52Z</time>
      </trkpt>
      <trkpt lat="47.28032" lon="-2.24795">
        <ele>23</ele>
        <time>2023-03-25T08:13:02Z</time>
      </trkpt>
      <trkpt lat="47.28041" lon="-2.2479">
        <ele>22.4</ele>
        <time>2023-03-25T08:13:12Z</time>
      </trkpt>
      <trkpt lat="47.2805" lon="-2.24786">
        <ele>21.9</ele>
        <time>2023-03-25T08:13:20Z</time>
      </trkpt>
      <trkpt lat="47.2806" lon="-2.24785">
        <ele>21.6</ele>
        <time>2023-03-25T08:13:27Z</time>
      </trkpt>
      <trkpt lat="47.28071" lon="-2.24785">
        <ele>21.4</ele>
        <time>2023-03-25T08:13:35Z</time>
      </trkpt>
      <trkpt lat="47.28081" lon="-2.24786">
        <ele>21.2</ele>
        <time>2023-03-25T08:13:43Z</time>
      </trkpt>
      <trkpt lat="47.2809" lon="-2.24788">
        <ele>21</ele>
        <time>2023-03-25T08:13:52Z</time>
      </trkpt>
      <trkpt lat="47.28099" lon="-2.2479">
        <ele>20.8</ele>
        <time>2023-03-25T08:13:59Z</time>
      </trkpt>
      <trkpt lat="47.28109" lon="-2.24791">
        <ele>20.1</ele>
        <time>2023-03-25T08:14:09Z</time>
      </trkpt>
      <trkpt lat="47.28118" lon="-2.24794">
        <ele>19.4</ele>
        <time>2023-03-25T08:14:18Z</time>
      </trkpt>
      <trkpt lat="47.28128" lon="-2.24797">
        <ele>18.8</ele>
        <time>2023-03-25T08:14:24Z</time>
      </trkpt>
      <trkpt lat="47.28137" lon="-2.24797">
        <ele>18.2</ele>
        <time>2023-03-25T08:14:30Z</time>
      </trkpt>
      <trkpt lat="47.28146" lon="-2.24799">
        <ele>17.2</ele>
        <time>2023-03-25T08:14:38Z</time>
      </trkpt>
      <trkpt lat="47.28156" lon="-2.24801">
        <ele>15.8</ele>
        <time>2023-03-25T08:14:46Z</time>
      </trkpt>
      <trkpt lat="47.28166" lon="-2.24802">
        <ele>14.2</ele>
        <time>2023-03-25T08:14:56Z</time>
      </trkpt>
      <trkpt lat="47.28176" lon="-2.24803">
        <ele>12.9</ele>
        <time>2023-03-25T08:15:04Z</time>
      </trkpt>
      <trkpt lat="47.28185" lon="-2.24805">
        <ele>11.2</ele>
        <time>2023-03-25T08:15:14Z</time>
      </trkpt>
      <trkpt lat="47.28196" lon="-2.24806">
        <ele>9.4</ele>
        <time>2023-03-25T08:15:25Z</time>
      </trkpt>
      <trkpt lat="47.28205" lon="-2.24812">
        <ele>8.5</ele>
        <time>2023-03-25T08:15:31Z</time>
      </trkpt>
      <trkpt lat="47.28215" lon="-2.24814">
        <ele>7.7</ele>
        <time>2023-03-25T08:15:39Z</time>
      </trkpt>
      <trkpt lat="47.28224" lon="-2.24814">
        <ele>6.7</ele>
        <time>2023-03-25T08:15:50Z</time>
      </trkpt>
      <trkpt lat="47.28234" lon="-2.24812">
        <ele>6</ele>
        <time>2023-03-25T08:15:57Z</time>
      </trkpt>
      <trkpt lat="47.28242" lon="-2.24805">
        <ele>5.7</ele>
        <time>2023-03-25T08:16:05Z</time>
      </trkpt>
      <trkpt lat="47.28251" lon="-2.248">
        <ele>5.5</ele>
        <time>2023-03-25T08:16:12Z</time>
      </trkpt>
      <trkpt lat="47.2826" lon="-2.24795">
        <ele>5.4</ele>
        <time>2023-03-25T08:16:19Z</time>
      </trkpt>
      <trkpt lat="47.28269" lon="-2.2479">
        <ele>5</ele>
        <time>2023-03-25T08:16:27Z</time>
      </trkpt>
      <trkpt lat="47.28278" lon="-2.24785">
        <ele>4.5</ele>
        <time>2023-03-25T08:16:35Z</time>
      </trkpt>
      <trkpt lat="47.28287" lon="-2.24778">
        <ele>4.3</ele>
        <time>2023-03-25T08:16:42Z</time>
      </trkpt>
      <trkpt lat="47.28296" lon="-2.24772">
        <ele>3.7</ele>
        <time>2023-03-25T08:16:50Z</time>
      </trkpt>
      <trkpt lat="47.28305" lon="-2.24769">
        <ele>3.2</ele>
        <time>2023-03-25T08:16:58Z</time>
      </trkpt>
      <trkpt lat="47.28314" lon="-2.24762">
        <ele>2.8</ele>
        <time>2023-03-25T08:17:07Z</time>
      </trkpt>
      <trkpt lat="47.28323" lon="-2.24756">
        <ele>2.4</ele>
        <time>2023-03-25T08:17:15Z</time>
      </trkpt>
      <trkpt lat="47.28333" lon="-2.24755">
        <ele>2.2</ele>
        <time>2023-03-25T08:17:22Z</time>
      </trkpt>
      <trkpt lat="47.28343" lon="-2.24755">
        <ele>2.2</ele>
        <time>2023-03-25T08:17:28Z</time>
      </trkpt>
      <trkpt lat="47.28353" lon="-2.24759">
        <ele>1.9</ele>
        <time>2023-03-25T08:17:35Z</time>
      </trkpt>
      <trkpt lat="47.28362" lon="-2.24764">
        <ele>1.3</ele>
        <time>2023-03-25T08:17:42Z</time>
      </trkpt>
      <trkpt lat="47.28371" lon="-2.24771">
        <ele>0.9</ele>
        <time>2023-03-25T08:17:50Z</time>
      </trkpt>
      <trkpt lat="47.28381" lon="-2.24774">
        <ele>0.7</ele>
        <time>2023-03-25T08:17:58Z</time>
      </trkpt>
      <trkpt lat="47.2839" lon="-2.24771">
        <ele>0.2</ele>
        <time>2023-03-25T08:18:06Z</time>
      </trkpt>
      <trkpt lat="47.28399" lon="-2.24766">
        <ele>-0.4</ele>
        <time>2023-03-25T08:18:25Z</time>
      </trkpt>
      <trkpt lat="47.28408" lon="-2.24765">
        <ele>-0.1</ele>
        <time>2023-03-25T08:18:38Z</time>
      </trkpt>
      <trkpt lat="47.28415" lon="-2.24755">
        <ele>-0.1</ele>
        <time>2023-03-25T08:19:01Z</time>
      </trkpt>
      <trkpt lat="47.28423" lon="-2.24747">
        <ele>6</ele>
        <time>2023-03-25T08:19:11Z</time>
      </trkpt>
      <trkpt lat="47.28431" lon="-2.2474">
        <ele>0.1</ele>
        <time>2023-03-25T08:19:22Z</time>
      </trkpt>
      <trkpt lat="47.28441" lon="-2.24736">
        <ele>6.2</ele>
        <time>2023-03-25T08:19:29Z</time>
      </trkpt>
      <trkpt lat="47.2845" lon="-2.2473">
        <ele>-0.1</ele>
        <time>2023-03-25T08:19:37Z</time>
      </trkpt>
      <trkpt lat="47.28459" lon="-2.24726">
        <ele>-0.1</ele>
        <time>2023-03-25T08:19:45Z</time>
      </trkpt>
      <trkpt lat="47.28467" lon="-2.24718">
        <ele>-0.1</ele>
        <time>2023-03-25T08:19:54Z</time>
      </trkpt>
      <trkpt lat="47.28476" lon="-2.24711">
        <ele>-0.3</ele>
        <time>2023-03-25T08:20:02Z</time>
      </trkpt>
      <trkpt lat="47.28485" lon="-2.24706">
        <ele>-0.6</ele>
        <time>2023-03-25T08:20:09Z</time>
      </trkpt>
      <trkpt lat="47.28494" lon="-2.247">
        <ele>-0.9</ele>
        <time>2023-03-25T08:20:17Z</time>
      </trkpt>
      <trkpt lat="47.28502" lon="-2.24692">
        <ele>-1</ele>
        <time>2023-03-25T08:20:25Z</time>
      </trkpt>
      <trkpt lat="47.28511" lon="-2.24687">
        <ele>-1.1</ele>
        <time>2023-03-25T08:20:34Z</time>
      </trkpt>
      <trkpt lat="47.28518" lon="-2.24678">
        <ele>-1.1</ele>
        <time>2023-03-25T08:20:43Z</time>
      </trkpt>
      <trkpt lat="47.28527" lon="-2.24671">
        <ele>-1.4</ele>
        <time>2023-03-25T08:20:51Z</time>
      </trkpt>
      <trkpt lat="47.28536" lon="-2.24666">
        <ele>-1.7</ele>
        <time>2023-03-25T08:20:59Z</time>
      </trkpt>
      <trkpt lat="47.28545" lon="-2.2466">
        <ele>-1.7</ele>
        <time>2023-03-25T08:21:07Z</time>
      </trkpt>
      <trkpt lat="47.28553" lon="-2.24652">
        <ele>-1.7</ele>
        <time>2023-03-25T08:21:16Z</time>
      </trkpt>
      <trkpt lat="47.28561" lon="-2.24645">
        <ele>-1.7</ele>
        <time>2023-03-25T08:21:24Z</time>
      </trkpt>
      <trkpt lat="47.28569" lon="-2.24637">
        <ele>-1.7</ele>
        <time>2023-03-25T08:21:33Z</time>
      </trkpt>
      <trkpt lat="47.28577" lon="-2.24629">
        <ele>-1.6</ele>
        <time>2023-03-25T08:21:41Z</time>
      </trkpt>
      <trkpt lat="47.28584" lon="-2.24619">
        <ele>-1.5</ele>
        <time>2023-03-25T08:21:50Z</time>
      </trkpt>
      <trkpt lat="47.28592" lon="-2.24611">
        <ele>-1.1</ele>
        <time>2023-03-25T08:22:00Z</time>
      </trkpt>
      <trkpt lat="47.286" lon="-2.24602">
        <ele>-0.9</ele>
        <time>2023-03-25T08:22:15Z</time>
      </trkpt>
      <trkpt lat="47.28604" lon="-2.2459">
        <ele>-0.9</ele>
        <time>2023-03-25T08:22:24Z</time>
      </trkpt>
      <trkpt lat="47.28603" lon="-2.24576">
        <ele>-0.2</ele>
        <time>2023-03-25T08:22:32Z</time>
      </trkpt>
      <trkpt lat="47.28607" lon="-2.24562">
        <ele>0.2</ele>
        <time>2023-03-25T08:22:40Z</time>
      </trkpt>
      <trkpt lat="47.2861" lon="-2.24549">
        <ele>0.4</ele>
        <time>2023-03-25T08:22:48Z</time>
      </trkpt>
      <trkpt lat="47.28615" lon="-2.24537">
        <ele>0.4</ele>
        <time>2023-03-25T08:23:21Z</time>
      </trkpt>
      <trkpt lat="47.28618" lon="-2.24523">
        <ele>0.4</ele>
        <time>2023-03-25T08:23:33Z</time>
      </trkpt>
      <trkpt lat="47.28622" lon="-2.24511">
        <ele>0.4</ele>
        <time>2023-03-25T08:23:41Z</time>
      </trkpt>
      <trkpt lat="47.28625" lon="-2.24498">
        <ele>4.5</ele>
        <time>2023-03-25T08:23:49Z</time>
      </trkpt>
      <trkpt lat="47.28626" lon="-2.24485">
        <ele>-0.3</ele>
        <time>2023-03-25T08:23:56Z</time>
      </trkpt>
      <trkpt lat="47.28629" lon="-2.24472">
        <ele>-0.2</ele>
        <time>2023-03-25T08:24:03Z</time>
      </trkpt>
      <trkpt lat="47.28633" lon="-2.2446">
        <ele>-0.1</ele>
        <time>2023-03-25T08:24:10Z</time>
      </trkpt>
      <trkpt lat="47.28638" lon="-2.24448">
        <ele>-0.2</ele>
        <time>2023-03-25T08:24:18Z</time>
      </trkpt>
      <trkpt lat="47.2864" lon="-2.24435">
        <ele>-0.4</ele>
        <time>2023-03-25T08:24:26Z</time>
      </trkpt>
      <trkpt lat="47.28642" lon="-2.24422">
        <ele>-0.6</ele>
        <time>2023-03-25T08:24:34Z</time>
      </trkpt>
      <trkpt lat="47.2864" lon="-2.24408">
        <ele>-0.4</ele>
        <time>2023-03-25T08:24:42Z</time>
      </trkpt>
      <trkpt lat="47.28647" lon="-2.24399">
        <ele>-0.3</ele>
        <time>2023-03-25T08:24:47Z</time>
      </trkpt>
      <trkpt lat="47.28651" lon="-2.24385">
        <ele>-0.3</ele>
        <time>2023-03-25T08:24:56Z</time>
      </trkpt>
      <trkpt lat="47.28656" lon="-2.24375">
        <ele>-0.2</ele>
        <time>2023-03-25T08:25:04Z</time>
      </trkpt>
      <trkpt lat="47.28665" lon="-2.24376">
        <ele>-0.8</ele>
        <time>2023-03-25T08:25:51Z</time>
      </trkpt>
      <trkpt lat="47.28668" lon="-2.24362">
        <ele>-0.5</ele>
        <time>2023-03-25T08:26:22Z</time>
      </trkpt>
      <trkpt lat="47.28667" lon="-2.24349">
        <ele>-0.4</ele>
        <time>2023-03-25T08:26:31Z</time>
      </trkpt>
      <trkpt lat="47.28667" lon="-2.24335">
        <ele>-0.6</ele>
        <time>2023-03-25T08:26:40Z</time>
      </trkpt>
      <trkpt lat="47.28667" lon="-2.2432">
        <ele>-0.6</ele>
        <time>2023-03-25T08:26:48Z</time>
      </trkpt>
      <trkpt lat="47.2867" lon="-2.24306">
        <ele>-0.6</ele>
        <time>2023-03-25T08:26:57Z</time>
      </trkpt>
      <trkpt lat="47.28672" lon="-2.24293">
        <ele>-0.7</ele>
        <time>2023-03-25T08:27:05Z</time>
      </trkpt>
      <trkpt lat="47.28671" lon="-2.24279">
        <ele>-0.8</ele>
        <time>2023-03-25T08:27:14Z</time>
      </trkpt>
      <trkpt lat="47.28674" lon="-2.24265">
        <ele>-0.9</ele>
        <time>2023-03-25T08:27:23Z</time>
      </trkpt>
      <trkpt lat="47.28678" lon="-2.24252">
        <ele>-1.2</ele>
        <time>2023-03-25T08:27:32Z</time>
      </trkpt>
      <trkpt lat="47.28677" lon="-2.24238">
        <ele>-0.6</ele>
        <time>2023-03-25T08:27:42Z</time>
      </trkpt>
      <trkpt lat="47.28678" lon="-2.24224">
        <ele>4</ele>
        <time>2023-03-25T08:27:52Z</time>
      </trkpt>
      <trkpt lat="47.28679" lon="-2.2421">
        <ele>0.1</ele>
        <time>2023-03-25T08:28:02Z</time>
      </trkpt>
      <trkpt lat="47.2868" lon="-2.24194">
        <ele>0.1</ele>
        <time>2023-03-25T08:28:13Z</time>
      </trkpt>
      <trkpt lat="47.28678" lon="-2.2418">
        <ele>0.1</ele>
        <time>2023-03-25T08:28:21Z</time>
      </trkpt>
      <trkpt lat="47.28678" lon="-2.24166">
        <ele>0.1</ele>
        <time>2023-03-25T08:28:31Z</time>
      </trkpt>
      <trkpt lat="47.28676" lon="-2.24152">
        <ele>0.1</ele>
        <time>2023-03-25T08:28:39Z</time>
      </trkpt>
      <trkpt lat="47.28674" lon="-2.24137">
        <ele>0.2</ele>
        <time>2023-03-25T08:28:46Z</time>
      </trkpt>
      <trkpt lat="47.28672" lon="-2.24123">
        <ele>0.3</ele>
        <time>2023-03-25T08:28:52Z</time>
      </trkpt>
      <trkpt lat="47.28671" lon="-2.2411">
        <ele>0.3</ele>
        <time>2023-03-25T08:28:59Z</time>
      </trkpt>
      <trkpt lat="47.28671" lon="-2.24095">
        <ele>0.2</ele>
        <time>2023-03-25T08:29:08Z</time>
      </trkpt>
      <trkpt lat="47.2867" lon="-2.2408">
        <ele>-0.1</ele>
        <time>2023-03-25T08:29:16Z</time>
      </trkpt>
      <trkpt lat="47.28668" lon="-2.24065">
        <ele>-0.2</ele>
        <time>2023-03-25T08:29:27Z</time>
      </trkpt>
      <trkpt lat="47.28667" lon="-2.2405">
        <ele>-0.4</ele>
        <time>2023-03-25T08:29:36Z</time>
      </trkpt>
      <trkpt lat="47.28665" lon="-2.24036">
        <ele>-0.5</ele>
        <time>2023-03-25T08:29:43Z</time>
      </trkpt>
      <trkpt lat="47.28664" lon="-2.24021">
        <ele>-0.7</ele>
        <time>2023-03-25T08:29:50Z</time>
      </trkpt>
      <trkpt lat="47.28662" lon="-2.24008">
        <ele>-0.9</ele>
        <time>2023-03-25T08:29:57Z</time>
      </trkpt>
      <trkpt lat="47.28659" lon="-2.23994">
        <ele>-1</ele>
        <time>2023-03-25T08:30:05Z</time>
      </trkpt>
      <trkpt lat="47.28656" lon="-2.23981">
        <ele>-1</ele>
        <time>2023-03-25T08:30:13Z</time>
      </trkpt>
      <trkpt lat="47.28655" lon="-2.23967">
        <ele>-1</ele>
        <time>2023-03-25T08:30:20Z</time>
      </trkpt>
      <trkpt lat="47.28654" lon="-2.23953">
        <ele>-1.1</ele>
        <time>2023-03-25T08:30:29Z</time>
      </trkpt>
      <trkpt lat="47.28652" lon="-2.2394">
        <ele>-1.2</ele>
        <time>2023-03-25T08:30:40Z</time>
      </trkpt>
      <trkpt lat="47.28652" lon="-2.23925">
        <ele>-1.3</ele>
        <time>2023-03-25T08:30:55Z</time>
      </trkpt>
      <trkpt lat="47.28652" lon="-2.23911">
        <ele>-1.3</ele>
        <time>2023-03-25T08:31:03Z</time>
      </trkpt>
      <trkpt lat="47.2865" lon="-2.23898">
        <ele>-1.4</ele>
        <time>2023-03-25T08:31:11Z</time>
      </trkpt>
      <trkpt lat="47.28648" lon="-2.23885">
        <ele>-1.5</ele>
        <time>2023-03-25T08:31:19Z</time>
      </trkpt>
      <trkpt lat="47.28648" lon="-2.23872">
        <ele>-1.5</ele>
        <time>2023-03-25T08:31:28Z</time>
      </trkpt>
      <trkpt lat="47.28647" lon="-2.23858">
        <ele>-1.4</ele>
        <time>2023-03-25T08:31:36Z</time>
      </trkpt>
      <trkpt lat="47.28643" lon="-2.23845">
        <ele>-1.6</ele>
        <time>2023-03-25T08:31:43Z</time>
      </trkpt>
      <trkpt lat="47.28641" lon="-2.2383">
        <ele>-1.5</ele>
        <time>2023-03-25T08:31:51Z</time>
      </trkpt>
      <trkpt lat="47.28639" lon="-2.23817">
        <ele>-1.6</ele>
        <time>2023-03-25T08:31:59Z</time>
      </trkpt>
      <trkpt lat="47.28637" lon="-2.23804">
        <ele>-1.7</ele>
        <time>2023-03-25T08:32:09Z</time>
      </trkpt>
      <trkpt lat="47.28634" lon="-2.2379">
        <ele>-1.7</ele>
        <time>2023-03-25T08:32:17Z</time>
      </trkpt>
      <trkpt lat="47.2863" lon="-2.23777">
        <ele>-1.5</ele>
        <time>2023-03-25T08:32:25Z</time>
      </trkpt>
      <trkpt lat="47.28628" lon="-2.23762">
        <ele>-1.5</ele>
        <time>2023-03-25T08:32:33Z</time>
      </trkpt>
      <trkpt lat="47.28627" lon="-2.23749">
        <ele>-1.3</ele>
        <time>2023-03-25T08:32:40Z</time>
      </trkpt>
      <trkpt lat="47.28625" lon="-2.23734">
        <ele>-1.2</ele>
        <time>2023-03-25T08:32:48Z</time>
      </trkpt>
      <trkpt lat="47.28624" lon="-2.2372">
        <ele>-1.2</ele>
        <time>2023-03-25T08:32:57Z</time>
      </trkpt>
      <trkpt lat="47.28623" lon="-2.23705">
        <ele>-1.6</ele>
        <time>2023-03-25T08:33:04Z</time>
      </trkpt>
      <trkpt lat="47.28622" lon="-2.23692">
        <ele>-1.9</ele>
        <time>2023-03-25T08:33:11Z</time>
      </trkpt>
      <trkpt lat="47.28621" lon="-2.23677">
        <ele>-2.3</ele>
        <time>2023-03-25T08:33:19Z</time>
      </trkpt>
      <trkpt lat="47.28622" lon="-2.23664">
        <ele>-2.3</ele>
        <time>2023-03-25T08:33:29Z</time>
      </trkpt>
      <trkpt lat="47.28622" lon="-2.2365">
        <ele>-2.4</ele>
        <time>2023-03-25T08:33:37Z</time>
      </trkpt>
      <trkpt lat="47.28622" lon="-2.23636">
        <ele>-2.6</ele>
        <time>2023-03-25T08:33:44Z</time>
      </trkpt>
      <trkpt lat="47.28623" lon="-2.23622">
        <ele>-2.9</ele>
        <time>2023-03-25T08:33:59Z</time>
      </trkpt>
      <trkpt lat="47.28625" lon="-2.2361">
        <ele>-2.9</ele>
        <time>2023-03-25T08:34:48Z</time>
      </trkpt>
      <trkpt lat="47.28628" lon="-2.23597">
        <ele>-3.2</ele>
        <time>2023-03-25T08:35:09Z</time>
      </trkpt>
      <trkpt lat="47.2863" lon="-2.23583">
        <ele>-3.6</ele>
        <time>2023-03-25T08:35:21Z</time>
      </trkpt>
      <trkpt lat="47.28625" lon="-2.23571">
        <ele>-4.5</ele>
        <time>2023-03-25T08:35:31Z</time>
      </trkpt>
      <trkpt lat="47.28616" lon="-2.23567">
        <ele>-4.4</ele>
        <time>2023-03-25T08:35:40Z</time>
      </trkpt>
      <trkpt lat="47.28607" lon="-2.23562">
        <ele>-4.6</ele>
        <time>2023-03-25T08:35:48Z</time>
      </trkpt>
      <trkpt lat="47.28598" lon="-2.23557">
        <ele>-4.1</ele>
        <time>2023-03-25T08:35:56Z</time>
      </trkpt>
      <trkpt lat="47.2859" lon="-2.23551">
        <ele>-3.3</ele>
        <time>2023-03-25T08:36:05Z</time>
      </trkpt>
      <trkpt lat="47.28583" lon="-2.23543">
        <ele>-3.3</ele>
        <time>2023-03-25T08:36:15Z</time>
      </trkpt>
      <trkpt lat="47.28579" lon="-2.23529">
        <ele>-3.9</ele>
        <time>2023-03-25T08:36:26Z</time>
      </trkpt>
      <trkpt lat="47.28577" lon="-2.23515">
        <ele>-4.5</ele>
        <time>2023-03-25T08:36:40Z</time>
      </trkpt>
      <trkpt lat="47.28577" lon="-2.23502">
        <ele>-4.6</ele>
        <time>2023-03-25T08:36:47Z</time>
      </trkpt>
      <trkpt lat="47.28581" lon="-2.23489">
        <ele>-4.5</ele>
        <time>2023-03-25T08:36:55Z</time>
      </trkpt>
      <trkpt lat="47.28579" lon="-2.23476">
        <ele>-4.7</ele>
        <time>2023-03-25T08:37:07Z</time>
      </trkpt>
      <trkpt lat="47.28578" lon="-2.23463">
        <ele>-4.2</ele>
        <time>2023-03-25T08:37:15Z</time>
      </trkpt>
      <trkpt lat="47.28578" lon="-2.23449">
        <ele>-3.7</ele>
        <time>2023-03-25T08:37:23Z</time>
      </trkpt>
      <trkpt lat="47.28577" lon="-2.23435">
        <ele>-3.4</ele>
        <time>2023-03-25T08:37:34Z</time>
      </trkpt>
      <trkpt lat="47.28577" lon="-2.23421">
        <ele>-3.4</ele>
        <time>2023-03-25T08:37:42Z</time>
      </trkpt>
      <trkpt lat="47.28578" lon="-2.23407">
        <ele>-3.5</ele>
        <time>2023-03-25T08:37:50Z</time>
      </trkpt>
      <trkpt lat="47.2858" lon="-2.23393">
        <ele>-3.5</ele>
        <time>2023-03-25T08:38:00Z</time>
      </trkpt>
      <trkpt lat="47.28581" lon="-2.2338">
        <ele>-3.7</ele>
        <time>2023-03-25T08:38:08Z</time>
      </trkpt>
      <trkpt lat="47.28584" lon="-2.23366">
        <ele>-3.5</ele>
        <time>2023-03-25T08:38:17Z</time>
      </trkpt>
      <trkpt lat="47.28586" lon="-2.23353">
        <ele>-3.2</ele>
        <time>2023-03-25T08:38:25Z</time>
      </trkpt>
      <trkpt lat="47.28588" lon="-2.2334">
        <ele>-3.3</ele>
        <time>2023-03-25T08:38:33Z</time>
      </trkpt>
      <trkpt lat="47.28588" lon="-2.23327">
        <ele>-3.1</ele>
        <time>2023-03-25T08:38:40Z</time>
      </trkpt>
      <trkpt lat="47.2859" lon="-2.23313">
        <ele>-2.9</ele>
        <time>2023-03-25T08:38:48Z</time>
      </trkpt>
      <trkpt lat="47.28588" lon="-2.23299">
        <ele>-2.8</ele>
        <time>2023-03-25T08:39:01Z</time>
      </trkpt>
      <trkpt lat="47.28589" lon="-2.23285">
        <ele>-3</ele>
        <time>2023-03-25T08:39:09Z</time>
      </trkpt>
      <trkpt lat="47.2859" lon="-2.23271">
        <ele>-3.1</ele>
        <time>2023-03-25T08:39:18Z</time>
      </trkpt>
      <trkpt lat="47.28591" lon="-2.23256">
        <ele>-3.6</ele>
        <time>2023-03-25T08:39:26Z</time>
      </trkpt>
      <trkpt lat="47.28594" lon="-2.23242">
        <ele>-3.8</ele>
        <time>2023-03-25T08:39:34Z</time>
      </trkpt>
      <trkpt lat="47.28595" lon="-2.23229">
        <ele>-3.9</ele>
        <time>2023-03-25T08:39:41Z</time>
      </trkpt>
      <trkpt lat="47.28599" lon="-2.23216">
        <ele>-4.1</ele>
        <time>2023-03-25T08:39:49Z</time>
      </trkpt>
      <trkpt lat="47.28606" lon="-2.23207">
        <ele>-4.4</ele>
        <time>2023-03-25T08:39:58Z</time>
      </trkpt>
      <trkpt lat="47.28614" lon="-2.23199">
        <ele>-4.6</ele>
        <time>2023-03-25T08:40:06Z</time>
      </trkpt>
      <trkpt lat="47.28623" lon="-2.23199">
        <ele>-4.9</ele>
        <time>2023-03-25T08:40:33Z</time>
      </trkpt>
      <trkpt lat="47.28625" lon="-2.23186">
        <ele>-4.9</ele>
        <time>2023-03-25T08:41:39Z</time>
      </trkpt>
      <trkpt lat="47.28634" lon="-2.23186">
        <ele>-4.8</ele>
        <time>2023-03-25T08:42:49Z</time>
      </trkpt>
      <trkpt lat="47.28644" lon="-2.23182">
        <ele>-5</ele>
        <time>2023-03-25T08:43:02Z</time>
      </trkpt>
      <trkpt lat="47.28653" lon="-2.23181">
        <ele>-5.3</ele>
        <time>2023-03-25T08:43:13Z</time>
      </trkpt>
      <trkpt lat="47.28661" lon="-2.23187">
        <ele>-5.5</ele>
        <time>2023-03-25T08:43:27Z</time>
      </trkpt>
      <trkpt lat="47.2867" lon="-2.23192">
        <ele>-5.5</ele>
        <time>2023-03-25T08:43:38Z</time>
      </trkpt>
      <trkpt lat="47.28677" lon="-2.23202">
        <ele>-5</ele>
        <time>2023-03-25T08:43:51Z</time>
      </trkpt>
      <trkpt lat="47.28683" lon="-2.23212">
        <ele>-4.1</ele>
        <time>2023-03-25T08:44:01Z</time>
      </trkpt>
      <trkpt lat="47.28684" lon="-2.23226">
        <ele>-2.9</ele>
        <time>2023-03-25T08:44:14Z</time>
      </trkpt>
      <trkpt lat="47.28683" lon="-2.2324">
        <ele>-1.9</ele>
        <time>2023-03-25T08:44:31Z</time>
      </trkpt>
      <trkpt lat="47.28685" lon="-2.23253">
        <ele>-2</ele>
        <time>2023-03-25T08:44:42Z</time>
      </trkpt>
      <trkpt lat="47.28684" lon="-2.23267">
        <ele>-2.6</ele>
        <time>2023-03-25T08:44:57Z</time>
      </trkpt>
      <trkpt lat="47.2868" lon="-2.23279">
        <ele>-3.8</ele>
        <time>2023-03-25T08:45:09Z</time>
      </trkpt>
      <trkpt lat="47.28674" lon="-2.2329">
        <ele>-4.2</ele>
        <time>2023-03-25T08:45:22Z</time>
      </trkpt>
      <trkpt lat="47.28665" lon="-2.23292">
        <ele>-1.7</ele>
        <time>2023-03-25T08:45:40Z</time>
      </trkpt>
      <trkpt lat="47.28658" lon="-2.23302">
        <ele>-4.2</ele>
        <time>2023-03-25T08:46:08Z</time>
      </trkpt>
      <trkpt lat="47.28656" lon="-2.23316">
        <ele>-5.2</ele>
        <time>2023-03-25T08:46:18Z</time>
      </trkpt>
      <trkpt lat="47.28654" lon="-2.23329">
        <ele>-5.4</ele>
        <time>2023-03-25T08:46:26Z</time>
      </trkpt>
      <trkpt lat="47.28655" lon="-2.23344">
        <ele>-5.4</ele>
        <time>2023-03-25T08:46:34Z</time>
      </trkpt>
      <trkpt lat="47.28654" lon="-2.23358">
        <ele>-5.4</ele>
        <time>2023-03-25T08:46:44Z</time>
      </trkpt>
      <trkpt lat="47.28651" lon="-2.2337">
        <ele>-5.8</ele>
        <time>2023-03-25T08:46:52Z</time>
      </trkpt>
      <trkpt lat="47.28648" lon="-2.23383">
        <ele>-5.8</ele>
        <time>2023-03-25T08:47:01Z</time>
      </trkpt>
      <trkpt lat="47.28648" lon="-2.23396">
        <ele>-5.8</ele>
        <time>2023-03-25T08:47:10Z</time>
      </trkpt>
      <trkpt lat="47.28649" lon="-2.23412">
        <ele>-5.5</ele>
        <time>2023-03-25T08:47:19Z</time>
      </trkpt>
      <trkpt lat="47.28655" lon="-2.23423">
        <ele>-5.1</ele>
        <time>2023-03-25T08:47:27Z</time>
      </trkpt>
      <trkpt lat="47.2866" lon="-2.23435">
        <ele>-4.6</ele>
        <time>2023-03-25T08:47:36Z</time>
      </trkpt>
      <trkpt lat="47.28661" lon="-2.2345">
        <ele>-4.5</ele>
        <time>2023-03-25T08:47:44Z</time>
      </trkpt>
      <trkpt lat="47.28661" lon="-2.23465">
        <ele>-4.1</ele>
        <time>2023-03-25T08:47:53Z</time>
      </trkpt>
      <trkpt lat="47.28659" lon="-2.23478">
        <ele>-3.9</ele>
        <time>2023-03-25T08:48:02Z</time>
      </trkpt>
      <trkpt lat="47.28657" lon="-2.23491">
        <ele>-4.4</ele>
        <time>2023-03-25T08:48:10Z</time>
      </trkpt>
      <trkpt lat="47.28655" lon="-2.23506">
        <ele>-4.6</ele>
        <time>2023-03-25T08:48:20Z</time>
      </trkpt>
      <trkpt lat="47.28653" lon="-2.2352">
        <ele>-4.7</ele>
        <time>2023-03-25T08:48:29Z</time>
      </trkpt>
      <trkpt lat="47.28653" lon="-2.23535">
        <ele>-5.2</ele>
        <time>2023-03-25T08:48:37Z</time>
      </trkpt>
      <trkpt lat="47.2865" lon="-2.23549">
        <ele>-5.6</ele>
        <time>2023-03-25T08:48:45Z</time>
      </trkpt>
      <trkpt lat="47.28644" lon="-2.23558">
        <ele>-6</ele>
        <time>2023-03-25T08:48:56Z</time>
      </trkpt>
      <trkpt lat="47.28648" lon="-2.23571">
        <ele>-6.7</ele>
        <time>2023-03-25T08:49:10Z</time>
      </trkpt>
      <trkpt lat="47.28656" lon="-2.23578">
        <ele>-6.8</ele>
        <time>2023-03-25T08:49:18Z</time>
      </trkpt>
      <trkpt lat="47.28664" lon="-2.23586">
        <ele>-6.6</ele>
        <time>2023-03-25T08:49:26Z</time>
      </trkpt>
      <trkpt lat="47.28672" lon="-2.23596">
        <ele>-6.2</ele>
        <time>2023-03-25T08:49:34Z</time>
      </trkpt>
      <trkpt lat="47.28678" lon="-2.23606">
        <ele>-5.9</ele>
        <time>2023-03-25T08:49:43Z</time>
      </trkpt>
      <trkpt lat="47.28685" lon="-2.23618">
        <ele>-5.8</ele>
        <time>2023-03-25T08:49:51Z</time>
      </trkpt>
      <trkpt lat="47.28692" lon="-2.23626">
        <ele>-6.2</ele>
        <time>2023-03-25T08:49:58Z</time>
      </trkpt>
      <trkpt lat="47.28693" lon="-2.2364">
        <ele>-5.8</ele>
        <time>2023-03-25T08:50:11Z</time>
      </trkpt>
      <trkpt lat="47.28699" lon="-2.23652">
        <ele>-6</ele>
        <time>2023-03-25T08:50:23Z</time>
      </trkpt>
      <trkpt lat="47.28705" lon="-2.23662">
        <ele>-6</ele>
        <time>2023-03-25T08:50:31Z</time>
      </trkpt>
      <trkpt lat="47.28709" lon="-2.23675">
        <ele>-6</ele>
        <time>2023-03-25T08:50:38Z</time>
      </trkpt>
      <trkpt lat="47.28717" lon="-2.23683">
        <ele>-6.3</ele>
        <time>2023-03-25T08:50:46Z</time>
      </trkpt>
      <trkpt lat="47.28724" lon="-2.23692">
        <ele>-6.2</ele>
        <time>2023-03-25T08:50:53Z</time>
      </trkpt>
      <trkpt lat="47.28731" lon="-2.23701">
        <ele>-5.8</ele>
        <time>2023-03-25T08:51:00Z</time>
      </trkpt>
      <trkpt lat="47.28738" lon="-2.23711">
        <ele>-5.8</ele>
        <time>2023-03-25T08:51:07Z</time>
      </trkpt>
      <trkpt lat="47.28744" lon="-2.23722">
        <ele>-6</ele>
        <time>2023-03-25T08:51:15Z</time>
      </trkpt>
      <trkpt lat="47.2875" lon="-2.23732">
        <ele>-6.2</ele>
        <time>2023-03-25T08:51:23Z</time>
      </trkpt>
      <trkpt lat="47.28757" lon="-2.23743">
        <ele>-6.1</ele>
        <time>2023-03-25T08:51:30Z</time>
      </trkpt>
      <trkpt lat="47.28763" lon="-2.23754">
        <ele>-5.9</ele>
        <time>2023-03-25T08:51:39Z</time>
      </trkpt>
      <trkpt lat="47.28768" lon="-2.23767">
        <ele>-5.8</ele>
        <time>2023-03-25T08:51:47Z</time>
      </trkpt>
      <trkpt lat="47.28774" lon="-2.23779">
        <ele>-6</ele>
        <time>2023-03-25T08:51:54Z</time>
      </trkpt>
      <trkpt lat="47.28779" lon="-2.2379">
        <ele>-6.3</ele>
        <time>2023-03-25T08:52:01Z</time>
      </trkpt>
      <trkpt lat="47.28788" lon="-2.23799">
        <ele>-6.3</ele>
        <time>2023-03-25T08:52:09Z</time>
      </trkpt>
      <trkpt lat="47.28793" lon="-2.23811">
        <ele>-6.1</ele>
        <time>2023-03-25T08:52:18Z</time>
      </trkpt>
      <trkpt lat="47.28798" lon="-2.23823">
        <ele>-6.2</ele>
        <time>2023-03-25T08:52:25Z</time>
      </trkpt>
      <trkpt lat="47.28803" lon="-2.23835">
        <ele>-6</ele>
        <time>2023-03-25T08:52:32Z</time>
      </trkpt>
      <trkpt lat="47.28806" lon="-2.23849">
        <ele>-5.9</ele>
        <time>2023-03-25T08:52:40Z</time>
      </trkpt>
      <trkpt lat="47.28807" lon="-2.23863">
        <ele>-6.2</ele>
        <time>2023-03-25T08:52:49Z</time>
      </trkpt>
      <trkpt lat="47.28807" lon="-2.23878">
        <ele>-5.8</ele>
        <time>2023-03-25T08:52:57Z</time>
      </trkpt>
      <trkpt lat="47.28809" lon="-2.23891">
        <ele>-5.7</ele>
        <time>2023-03-25T08:53:05Z</time>
      </trkpt>
      <trkpt lat="47.28808" lon="-2.23905">
        <ele>-5.7</ele>
        <time>2023-03-25T08:53:36Z</time>
      </trkpt>
      <trkpt lat="47.28803" lon="-2.23917">
        <ele>-5</ele>
        <time>2023-03-25T08:54:27Z</time>
      </trkpt>
      <trkpt lat="47.28801" lon="-2.23932">
        <ele>-5.6</ele>
        <time>2023-03-25T08:54:36Z</time>
      </trkpt>
      <trkpt lat="47.288" lon="-2.23946">
        <ele>-6</ele>
        <time>2023-03-25T08:54:43Z</time>
      </trkpt>
      <trkpt lat="47.28798" lon="-2.2396">
        <ele>-5.7</ele>
        <time>2023-03-25T08:54:54Z</time>
      </trkpt>
      <trkpt lat="47.28797" lon="-2.23974">
        <ele>-5.4</ele>
        <time>2023-03-25T08:55:04Z</time>
      </trkpt>
      <trkpt lat="47.28796" lon="-2.23988">
        <ele>-5.7</ele>
        <time>2023-03-25T08:55:11Z</time>
      </trkpt>
      <trkpt lat="47.28795" lon="-2.24002">
        <ele>-5.9</ele>
        <time>2023-03-25T08:55:19Z</time>
      </trkpt>
      <trkpt lat="47.28794" lon="-2.24016">
        <ele>-5.9</ele>
        <time>2023-03-25T08:55:27Z</time>
      </trkpt>
      <trkpt lat="47.28794" lon="-2.2403">
        <ele>-6</ele>
        <time>2023-03-25T08:55:37Z</time>
      </trkpt>
      <trkpt lat="47.28792" lon="-2.24043">
        <ele>-5.8</ele>
        <time>2023-03-25T08:55:46Z</time>
      </trkpt>
      <trkpt lat="47.2879" lon="-2.24058">
        <ele>-5.6</ele>
        <time>2023-03-25T08:55:53Z</time>
      </trkpt>
      <trkpt lat="47.28788" lon="-2.24072">
        <ele>-5.5</ele>
        <time>2023-03-25T08:56:00Z</time>
      </trkpt>
      <trkpt lat="47.28788" lon="-2.24087">
        <ele>-5.4</ele>
        <time>2023-03-25T08:56:07Z</time>
      </trkpt>
      <trkpt lat="47.28788" lon="-2.24102">
        <ele>-5.5</ele>
        <time>2023-03-25T08:56:15Z</time>
      </trkpt>
      <trkpt lat="47.28788" lon="-2.24116">
        <ele>-5.1</ele>
        <time>2023-03-25T08:56:23Z</time>
      </trkpt>
      <trkpt lat="47.28789" lon="-2.24129">
        <ele>-5.1</ele>
        <time>2023-03-25T08:56:32Z</time>
      </trkpt>
      <trkpt lat="47.28788" lon="-2.24143">
        <ele>-5</ele>
        <time>2023-03-25T08:56:42Z</time>
      </trkpt>
      <trkpt lat="47.28791" lon="-2.24158">
        <ele>-4.8</ele>
        <time>2023-03-25T08:56:53Z</time>
      </trkpt>
      <trkpt lat="47.2879" lon="-2.24172">
        <ele>-4.7</ele>
        <time>2023-03-25T08:57:00Z</time>
      </trkpt>
      <trkpt lat="47.2879" lon="-2.24186">
        <ele>-4.8</ele>
        <time>2023-03-25T08:57:08Z</time>
      </trkpt>
      <trkpt lat="47.28788" lon="-2.242">
        <ele>-4.8</ele>
        <time>2023-03-25T08:57:15Z</time>
      </trkpt>
      <trkpt lat="47.28787" lon="-2.24214">
        <ele>-4.7</ele>
        <time>2023-03-25T08:57:23Z</time>
      </trkpt>
      <trkpt lat="47.28787" lon="-2.24228">
        <ele>-4.9</ele>
        <time>2023-03-25T08:57:31Z</time>
      </trkpt>
      <trkpt lat="47.28783" lon="-2.2424">
        <ele>-4.9</ele>
        <time>2023-03-25T08:58:12Z</time>
      </trkpt>
      <trkpt lat="47.28783" lon="-2.24254">
        <ele>-5</ele>
        <time>2023-03-25T08:58:30Z</time>
      </trkpt>
      <trkpt lat="47.28782" lon="-2.24269">
        <ele>-5.5</ele>
        <time>2023-03-25T08:58:52Z</time>
      </trkpt>
      <trkpt lat="47.28783" lon="-2.24282">
        <ele>-5.3</ele>
        <time>2023-03-25T08:59:01Z</time>
      </trkpt>
      <trkpt lat="47.28785" lon="-2.24296">
        <ele>-5.2</ele>
        <time>2023-03-25T08:59:09Z</time>
      </trkpt>
      <trkpt lat="47.28786" lon="-2.24309">
        <ele>-5.3</ele>
        <time>2023-03-25T08:59:18Z</time>
      </trkpt>
      <trkpt lat="47.28784" lon="-2.24323">
        <ele>-5.3</ele>
        <time>2023-03-25T08:59:25Z</time>
      </trkpt>
      <trkpt lat="47.28782" lon="-2.24337">
        <ele>-5.8</ele>
        <time>2023-03-25T08:59:33Z</time>
      </trkpt>
      <trkpt lat="47.28781" lon="-2.24351">
        <ele>-6.2</ele>
        <time>2023-03-25T08:59:42Z</time>
      </trkpt>
      <trkpt lat="47.28778" lon="-2.24364">
        <ele>-5.5</ele>
        <time>2023-03-25T08:59:52Z</time>
      </trkpt>
      <trkpt lat="47.28775" lon="-2.24379">
        <ele>-5.7</ele>
        <time>2023-03-25T09:00:00Z</time>
      </trkpt>
      <trkpt lat="47.28772" lon="-2.24393">
        <ele>-5.6</ele>
        <time>2023-03-25T09:00:07Z</time>
      </trkpt>
      <trkpt lat="47.28769" lon="-2.24406">
        <ele>-5.6</ele>
        <time>2023-03-25T09:00:16Z</time>
      </trkpt>
      <trkpt lat="47.28765" lon="-2.24419">
        <ele>-5.4</ele>
        <time>2023-03-25T09:00:25Z</time>
      </trkpt>
      <trkpt lat="47.28763" lon="-2.24434">
        <ele>-5.2</ele>
        <time>2023-03-25T09:00:33Z</time>
      </trkpt>
      <trkpt lat="47.28759" lon="-2.24448">
        <ele>-5.6</ele>
        <time>2023-03-25T09:00:41Z</time>
      </trkpt>
      <trkpt lat="47.28756" lon="-2.24461">
        <ele>-6.1</ele>
        <time>2023-03-25T09:00:49Z</time>
      </trkpt>
      <trkpt lat="47.28755" lon="-2.24475">
        <ele>-5.7</ele>
        <time>2023-03-25T09:00:59Z</time>
      </trkpt>
      <trkpt lat="47.28754" lon="-2.24489">
        <ele>-5.3</ele>
        <time>2023-03-25T09:01:06Z</time>
      </trkpt>
      <trkpt lat="47.28755" lon="-2.24503">
        <ele>-5.6</ele>
        <time>2023-03-25T09:01:13Z</time>
      </trkpt>
      <trkpt lat="47.28758" lon="-2.24516">
        <ele>-4.9</ele>
        <time>2023-03-25T09:01:22Z</time>
      </trkpt>
      <trkpt lat="47.28758" lon="-2.24531">
        <ele>-5.4</ele>
        <time>2023-03-25T09:01:29Z</time>
      </trkpt>
      <trkpt lat="47.28756" lon="-2.24544">
        <ele>-4.8</ele>
        <time>2023-03-25T09:01:35Z</time>
      </trkpt>
      <trkpt lat="47.28752" lon="-2.24557">
        <ele>-4.7</ele>
        <time>2023-03-25T09:01:43Z</time>
      </trkpt>
      <trkpt lat="47.28748" lon="-2.24571">
        <ele>-4.6</ele>
        <time>2023-03-25T09:01:51Z</time>
      </trkpt>
      <trkpt lat="47.28744" lon="-2.24583">
        <ele>-4.5</ele>
        <time>2023-03-25T09:01:57Z</time>
      </trkpt>
      <trkpt lat="47.28739" lon="-2.24596">
        <ele>-4.6</ele>
        <time>2023-03-25T09:02:05Z</time>
      </trkpt>
      <trkpt lat="47.28735" lon="-2.24608">
        <ele>-4.8</ele>
        <time>2023-03-25T09:02:12Z</time>
      </trkpt>
      <trkpt lat="47.28729" lon="-2.24619">
        <ele>-4.2</ele>
        <time>2023-03-25T09:02:21Z</time>
      </trkpt>
      <trkpt lat="47.28722" lon="-2.2463">
        <ele>-4.2</ele>
        <time>2023-03-25T09:02:29Z</time>
      </trkpt>
      <trkpt lat="47.28714" lon="-2.24639">
        <ele>-4</ele>
        <time>2023-03-25T09:02:36Z</time>
      </trkpt>
      <trkpt lat="47.28707" lon="-2.24648">
        <ele>-4.1</ele>
        <time>2023-03-25T09:02:43Z</time>
      </trkpt>
      <trkpt lat="47.287" lon="-2.24657">
        <ele>-4.3</ele>
        <time>2023-03-25T09:02:51Z</time>
      </trkpt>
      <trkpt lat="47.28693" lon="-2.24666">
        <ele>-4.6</ele>
        <time>2023-03-25T09:03:01Z</time>
      </trkpt>
      <trkpt lat="47.28685" lon="-2.24674">
        <ele>-4.3</ele>
        <time>2023-03-25T09:03:10Z</time>
      </trkpt>
      <trkpt lat="47.28677" lon="-2.24681">
        <ele>-4.4</ele>
        <time>2023-03-25T09:03:18Z</time>
      </trkpt>
      <trkpt lat="47.28671" lon="-2.24693">
        <ele>-4</ele>
        <time>2023-03-25T09:03:29Z</time>
      </trkpt>
      <trkpt lat="47.28666" lon="-2.24704">
        <ele>-3.5</ele>
        <time>2023-03-25T09:03:39Z</time>
      </trkpt>
      <trkpt lat="47.28656" lon="-2.24711">
        <ele>-3.2</ele>
        <time>2023-03-25T09:03:45Z</time>
      </trkpt>
      <trkpt lat="47.28648" lon="-2.24717">
        <ele>-3.2</ele>
        <time>2023-03-25T09:03:55Z</time>
      </trkpt>
      <trkpt lat="47.28638" lon="-2.24721">
        <ele>-2.3</ele>
        <time>2023-03-25T09:04:05Z</time>
      </trkpt>
      <trkpt lat="47.28629" lon="-2.24725">
        <ele>-2.5</ele>
        <time>2023-03-25T09:04:12Z</time>
      </trkpt>
      <trkpt lat="47.2862" lon="-2.2473">
        <ele>-2.9</ele>
        <time>2023-03-25T09:04:22Z</time>
      </trkpt>
      <trkpt lat="47.28611" lon="-2.24733">
        <ele>-3</ele>
        <time>2023-03-25T09:04:29Z</time>
      </trkpt>
      <trkpt lat="47.28602" lon="-2.24734">
        <ele>-3.1</ele>
        <time>2023-03-25T09:04:37Z</time>
      </trkpt>
      <trkpt lat="47.28593" lon="-2.24735">
        <ele>-3.5</ele>
        <time>2023-03-25T09:04:45Z</time>
      </trkpt>
      <trkpt lat="47.28584" lon="-2.24738">
        <ele>-3.9</ele>
        <time>2023-03-25T09:04:53Z</time>
      </trkpt>
      <trkpt lat="47.28575" lon="-2.2474">
        <ele>-4.2</ele>
        <time>2023-03-25T09:05:00Z</time>
      </trkpt>
      <trkpt lat="47.28565" lon="-2.24744">
        <ele>-4.3</ele>
        <time>2023-03-25T09:05:08Z</time>
      </trkpt>
      <trkpt lat="47.28555" lon="-2.24748">
        <ele>-4</ele>
        <time>2023-03-25T09:05:15Z</time>
      </trkpt>
      <trkpt lat="47.28546" lon="-2.24753">
        <ele>-4</ele>
        <time>2023-03-25T09:05:23Z</time>
      </trkpt>
      <trkpt lat="47.28537" lon="-2.24757">
        <ele>-3.8</ele>
        <time>2023-03-25T09:05:31Z</time>
      </trkpt>
      <trkpt lat="47.28528" lon="-2.24761">
        <ele>-3.7</ele>
        <time>2023-03-25T09:05:39Z</time>
      </trkpt>
      <trkpt lat="47.28519" lon="-2.24767">
        <ele>-3.4</ele>
        <time>2023-03-25T09:05:47Z</time>
      </trkpt>
      <trkpt lat="47.2851" lon="-2.24772">
        <ele>-3.3</ele>
        <time>2023-03-25T09:05:55Z</time>
      </trkpt>
      <trkpt lat="47.28501" lon="-2.24778">
        <ele>-3.3</ele>
        <time>2023-03-25T09:06:05Z</time>
      </trkpt>
      <trkpt lat="47.28491" lon="-2.24782">
        <ele>-2.8</ele>
        <time>2023-03-25T09:06:14Z</time>
      </trkpt>
      <trkpt lat="47.28483" lon="-2.24787">
        <ele>-2.6</ele>
        <time>2023-03-25T09:06:28Z</time>
      </trkpt>
      <trkpt lat="47.28475" lon="-2.24793">
        <ele>-2.5</ele>
        <time>2023-03-25T09:06:40Z</time>
      </trkpt>
      <trkpt lat="47.28466" lon="-2.24799">
        <ele>-2.4</ele>
        <time>2023-03-25T09:06:48Z</time>
      </trkpt>
      <trkpt lat="47.28457" lon="-2.24805">
        <ele>-2</ele>
        <time>2023-03-25T09:06:57Z</time>
      </trkpt>
      <trkpt lat="47.28448" lon="-2.24809">
        <ele>-1.7</ele>
        <time>2023-03-25T09:07:05Z</time>
      </trkpt>
      <trkpt lat="47.28439" lon="-2.24813">
        <ele>-1.5</ele>
        <time>2023-03-25T09:07:12Z</time>
      </trkpt>
      <trkpt lat="47.2843" lon="-2.24815">
        <ele>-1.6</ele>
        <time>2023-03-25T09:07:20Z</time>
      </trkpt>
      <trkpt lat="47.2842" lon="-2.24817">
        <ele>-2.1</ele>
        <time>2023-03-25T09:07:29Z</time>
      </trkpt>
      <trkpt lat="47.28411" lon="-2.24821">
        <ele>-3</ele>
        <time>2023-03-25T09:07:37Z</time>
      </trkpt>
      <trkpt lat="47.28401" lon="-2.24827">
        <ele>-3.2</ele>
        <time>2023-03-25T09:07:45Z</time>
      </trkpt>
      <trkpt lat="47.28394" lon="-2.24836">
        <ele>-2.8</ele>
        <time>2023-03-25T09:07:56Z</time>
      </trkpt>
      <trkpt lat="47.28393" lon="-2.24849">
        <ele>-3.6</ele>
        <time>2023-03-25T09:08:07Z</time>
      </trkpt>
      <trkpt lat="47.28392" lon="-2.24863">
        <ele>-3.6</ele>
        <time>2023-03-25T09:08:16Z</time>
      </trkpt>
      <trkpt lat="47.28392" lon="-2.24877">
        <ele>-3.4</ele>
        <time>2023-03-25T09:08:24Z</time>
      </trkpt>
      <trkpt lat="47.28395" lon="-2.24892">
        <ele>-3.1</ele>
        <time>2023-03-25T09:08:37Z</time>
      </trkpt>
      <trkpt lat="47.28395" lon="-2.24905">
        <ele>-3</ele>
        <time>2023-03-25T09:08:45Z</time>
      </trkpt>
      <trkpt lat="47.28396" lon="-2.24919">
        <ele>-2.8</ele>
        <time>2023-03-25T09:08:52Z</time>
      </trkpt>
      <trkpt lat="47.28394" lon="-2.24932">
        <ele>-2.4</ele>
        <time>2023-03-25T09:09:02Z</time>
      </trkpt>
      <trkpt lat="47.28398" lon="-2.24945">
        <ele>-2</ele>
        <time>2023-03-25T09:09:07Z</time>
      </trkpt>
      <trkpt lat="47.28397" lon="-2.24959">
        <ele>-1.9</ele>
        <time>2023-03-25T09:09:13Z</time>
      </trkpt>
      <trkpt lat="47.28397" lon="-2.24974">
        <ele>-1.5</ele>
        <time>2023-03-25T09:09:22Z</time>
      </trkpt>
      <trkpt lat="47.28398" lon="-2.24987">
        <ele>-0.8</ele>
        <time>2023-03-25T09:09:31Z</time>
      </trkpt>
      <trkpt lat="47.284" lon="-2.25002">
        <ele>-0.2</ele>
        <time>2023-03-25T09:09:41Z</time>
      </trkpt>
      <trkpt lat="47.28402" lon="-2.25016">
        <ele>0.5</ele>
        <time>2023-03-25T09:09:51Z</time>
      </trkpt>
      <trkpt lat="47.28404" lon="-2.25029">
        <ele>1.1</ele>
        <time>2023-03-25T09:09:59Z</time>
      </trkpt>
      <trkpt lat="47.28406" lon="-2.25044">
        <ele>1.7</ele>
        <time>2023-03-25T09:10:09Z</time>
      </trkpt>
      <trkpt lat="47.28407" lon="-2.25057">
        <ele>2.3</ele>
        <time>2023-03-25T09:10:17Z</time>
      </trkpt>
      <trkpt lat="47.28407" lon="-2.25072">
        <ele>3.1</ele>
        <time>2023-03-25T09:10:25Z</time>
      </trkpt>
      <trkpt lat="47.28411" lon="-2.25085">
        <ele>4</ele>
        <time>2023-03-25T09:10:34Z</time>
      </trkpt>
      <trkpt lat="47.2842" lon="-2.25086">
        <ele>4.8</ele>
        <time>2023-03-25T09:10:47Z</time>
      </trkpt>
      <trkpt lat="47.28429" lon="-2.25087">
        <ele>5.5</ele>
        <time>2023-03-25T09:10:56Z</time>
      </trkpt>
      <trkpt lat="47.28437" lon="-2.25096">
        <ele>5.9</ele>
        <time>2023-03-25T09:11:06Z</time>
      </trkpt>
      <trkpt lat="47.28437" lon="-2.2511">
        <ele>6.4</ele>
        <time>2023-03-25T09:11:16Z</time>
      </trkpt>
      <trkpt lat="47.28436" lon="-2.25123">
        <ele>7.3</ele>
        <time>2023-03-25T09:11:27Z</time>
      </trkpt>
      <trkpt lat="47.28433" lon="-2.25136">
        <ele>8.1</ele>
        <time>2023-03-25T09:11:36Z</time>
      </trkpt>
      <trkpt lat="47.28432" lon="-2.2515">
        <ele>8.8</ele>
        <time>2023-03-25T09:11:46Z</time>
      </trkpt>
      <trkpt lat="47.28431" lon="-2.25163">
        <ele>9.6</ele>
        <time>2023-03-25T09:11:55Z</time>
      </trkpt>
      <trkpt lat="47.28431" lon="-2.25177">
        <ele>10.6</ele>
        <time>2023-03-25T09:12:05Z</time>
      </trkpt>
      <trkpt lat="47.28428" lon="-2.25191">
        <ele>11.1</ele>
        <time>2023-03-25T09:12:14Z</time>
      </trkpt>
      <trkpt lat="47.28426" lon="-2.25204">
        <ele>11.6</ele>
        <time>2023-03-25T09:12:21Z</time>
      </trkpt>
      <trkpt lat="47.28421" lon="-2.25216">
        <ele>12.5</ele>
        <time>2023-03-25T09:12:30Z</time>
      </trkpt>
      <trkpt lat="47.28419" lon="-2.25229">
        <ele>13.2</ele>
        <time>2023-03-25T09:12:40Z</time>
      </trkpt>
      <trkpt lat="47.28416" lon="-2.25242">
        <ele>14.1</ele>
        <time>2023-03-25T09:12:50Z</time>
      </trkpt>
      <trkpt lat="47.28412" lon="-2.25255">
        <ele>14.7</ele>
        <time>2023-03-25T09:13:00Z</time>
      </trkpt>
      <trkpt lat="47.28406" lon="-2.25267">
        <ele>14.9</ele>
        <time>2023-03-25T09:13:09Z</time>
      </trkpt>
      <trkpt lat="47.28398" lon="-2.25278">
        <ele>15</ele>
        <time>2023-03-25T09:13:23Z</time>
      </trkpt>
      <trkpt lat="47.28392" lon="-2.25289">
        <ele>15</ele>
        <time>2023-03-25T09:13:31Z</time>
      </trkpt>
      <trkpt lat="47.2839" lon="-2.25303">
        <ele>16</ele>
        <time>2023-03-25T09:13:36Z</time>
      </trkpt>
      <trkpt lat="47.28384" lon="-2.25312">
        <ele>16.6</ele>
        <time>2023-03-25T09:13:43Z</time>
      </trkpt>
      <trkpt lat="47.28375" lon="-2.25317">
        <ele>17.4</ele>
        <time>2023-03-25T09:13:53Z</time>
      </trkpt>
      <trkpt lat="47.28366" lon="-2.25322">
        <ele>17.7</ele>
        <time>2023-03-25T09:14:01Z</time>
      </trkpt>
      <trkpt lat="47.28357" lon="-2.25326">
        <ele>17.8</ele>
        <time>2023-03-25T09:14:09Z</time>
      </trkpt>
      <trkpt lat="47.28348" lon="-2.25333">
        <ele>18</ele>
        <time>2023-03-25T09:14:20Z</time>
      </trkpt>
      <trkpt lat="47.28341" lon="-2.25341">
        <ele>17.8</ele>
        <time>2023-03-25T09:14:30Z</time>
      </trkpt>
      <trkpt lat="47.28332" lon="-2.25346">
        <ele>17.5</ele>
        <time>2023-03-25T09:14:41Z</time>
      </trkpt>
      <trkpt lat="47.28323" lon="-2.25349">
        <ele>17.1</ele>
        <time>2023-03-25T09:14:50Z</time>
      </trkpt>
      <trkpt lat="47.28314" lon="-2.25353">
        <ele>16.8</ele>
        <time>2023-03-25T09:14:58Z</time>
      </trkpt>
      <trkpt lat="47.28305" lon="-2.25357">
        <ele>16.3</ele>
        <time>2023-03-25T09:15:06Z</time>
      </trkpt>
      <trkpt lat="47.28295" lon="-2.25359">
        <ele>15.9</ele>
        <time>2023-03-25T09:15:14Z</time>
      </trkpt>
      <trkpt lat="47.28286" lon="-2.2536">
        <ele>15.5</ele>
        <time>2023-03-25T09:15:22Z</time>
      </trkpt>
      <trkpt lat="47.28277" lon="-2.25364">
        <ele>14.9</ele>
        <time>2023-03-25T09:15:32Z</time>
      </trkpt>
      <trkpt lat="47.28268" lon="-2.25369">
        <ele>14.5</ele>
        <time>2023-03-25T09:15:39Z</time>
      </trkpt>
      <trkpt lat="47.28259" lon="-2.25374">
        <ele>14.1</ele>
        <time>2023-03-25T09:15:45Z</time>
      </trkpt>
      <trkpt lat="47.2825" lon="-2.25378">
        <ele>13.6</ele>
        <time>2023-03-25T09:15:53Z</time>
      </trkpt>
      <trkpt lat="47.28241" lon="-2.25383">
        <ele>12.6</ele>
        <time>2023-03-25T09:16:02Z</time>
      </trkpt>
      <trkpt lat="47.28232" lon="-2.25388">
        <ele>12.4</ele>
        <time>2023-03-25T09:16:14Z</time>
      </trkpt>
      <trkpt lat="47.28222" lon="-2.25394">
        <ele>11</ele>
        <time>2023-03-25T09:16:24Z</time>
      </trkpt>
      <trkpt lat="47.28213" lon="-2.25399">
        <ele>10.7</ele>
        <time>2023-03-25T09:16:32Z</time>
      </trkpt>
      <trkpt lat="47.28204" lon="-2.25404">
        <ele>10</ele>
        <time>2023-03-25T09:16:40Z</time>
      </trkpt>
      <trkpt lat="47.28196" lon="-2.25413">
        <ele>9.4</ele>
        <time>2023-03-25T09:16:48Z</time>
      </trkpt>
      <trkpt lat="47.28187" lon="-2.2542">
        <ele>9</ele>
        <time>2023-03-25T09:16:55Z</time>
      </trkpt>
      <trkpt lat="47.28178" lon="-2.25427">
        <ele>8.4</ele>
        <time>2023-03-25T09:17:05Z</time>
      </trkpt>
      <trkpt lat="47.2817" lon="-2.25433">
        <ele>8.1</ele>
        <time>2023-03-25T09:17:20Z</time>
      </trkpt>
      <trkpt lat="47.28161" lon="-2.25437">
        <ele>8</ele>
        <time>2023-03-25T09:17:33Z</time>
      </trkpt>
      <trkpt lat="47.28152" lon="-2.25441">
        <ele>7.5</ele>
        <time>2023-03-25T09:17:45Z</time>
      </trkpt>
      <trkpt lat="47.28144" lon="-2.25448">
        <ele>7.3</ele>
        <time>2023-03-25T09:17:53Z</time>
      </trkpt>
      <trkpt lat="47.28134" lon="-2.25451">
        <ele>7</ele>
        <time>2023-03-25T09:18:00Z</time>
      </trkpt>
      <trkpt lat="47.28126" lon="-2.25458">
        <ele>6.6</ele>
        <time>2023-03-25T09:18:14Z</time>
      </trkpt>
      <trkpt lat="47.28117" lon="-2.25464">
        <ele>5.8</ele>
        <time>2023-03-25T09:18:30Z</time>
      </trkpt>
      <trkpt lat="47.28109" lon="-2.2547">
        <ele>5.8</ele>
        <time>2023-03-25T09:18:40Z</time>
      </trkpt>
      <trkpt lat="47.28099" lon="-2.25473">
        <ele>5.1</ele>
        <time>2023-03-25T09:18:48Z</time>
      </trkpt>
      <trkpt lat="47.28096" lon="-2.25487">
        <ele>4.2</ele>
        <time>2023-03-25T09:18:58Z</time>
      </trkpt>
      <trkpt lat="47.28098" lon="-2.25501">
        <ele>4.3</ele>
        <time>2023-03-25T09:19:13Z</time>
      </trkpt>
      <trkpt lat="47.281" lon="-2.25515">
        <ele>3.6</ele>
        <time>2023-03-25T09:19:22Z</time>
      </trkpt>
      <trkpt lat="47.28103" lon="-2.25529">
        <ele>3.6</ele>
        <time>2023-03-25T09:19:30Z</time>
      </trkpt>
      <trkpt lat="47.28103" lon="-2.25542">
        <ele>4</ele>
        <time>2023-03-25T09:19:40Z</time>
      </trkpt>
      <trkpt lat="47.28104" lon="-2.25557">
        <ele>3.9</ele>
        <time>2023-03-25T09:19:48Z</time>
      </trkpt>
      <trkpt lat="47.28105" lon="-2.25571">
        <ele>3.8</ele>
        <time>2023-03-25T09:19:57Z</time>
      </trkpt>
      <trkpt lat="47.28106" lon="-2.25585">
        <ele>3.8</ele>
        <time>2023-03-25T09:20:07Z</time>
      </trkpt>
      <trkpt lat="47.28105" lon="-2.256">
        <ele>3.7</ele>
        <time>2023-03-25T09:20:18Z</time>
      </trkpt>
      <trkpt lat="47.28106" lon="-2.25615">
        <ele>3.5</ele>
        <time>2023-03-25T09:20:26Z</time>
      </trkpt>
      <trkpt lat="47.28106" lon="-2.25628">
        <ele>3.6</ele>
        <time>2023-03-25T09:20:35Z</time>
      </trkpt>
      <trkpt lat="47.28107" lon="-2.25642">
        <ele>3.7</ele>
        <time>2023-03-25T09:20:44Z</time>
      </trkpt>
      <trkpt lat="47.28107" lon="-2.25656">
        <ele>3.8</ele>
        <time>2023-03-25T09:20:52Z</time>
      </trkpt>
      <trkpt lat="47.28106" lon="-2.25671">
        <ele>4</ele>
        <time>2023-03-25T09:21:00Z</time>
      </trkpt>
      <trkpt lat="47.28106" lon="-2.25685">
        <ele>3.6</ele>
        <time>2023-03-25T09:21:08Z</time>
      </trkpt>
      <trkpt lat="47.28106" lon="-2.25699">
        <ele>3.6</ele>
        <time>2023-03-25T09:21:16Z</time>
      </trkpt>
      <trkpt lat="47.28106" lon="-2.25713">
        <ele>3.8</ele>
        <time>2023-03-25T09:21:24Z</time>
      </trkpt>
      <trkpt lat="47.28107" lon="-2.25727">
        <ele>3.7</ele>
        <time>2023-03-25T09:21:32Z</time>
      </trkpt>
      <trkpt lat="47.28107" lon="-2.25742">
        <ele>3.9</ele>
        <time>2023-03-25T09:21:40Z</time>
      </trkpt>
      <trkpt lat="47.28105" lon="-2.25756">
        <ele>3.9</ele>
        <time>2023-03-25T09:21:46Z</time>
      </trkpt>
      <trkpt lat="47.28102" lon="-2.25768">
        <ele>4.1</ele>
        <time>2023-03-25T09:21:52Z</time>
      </trkpt>
      <trkpt lat="47.28098" lon="-2.25782">
        <ele>4.3</ele>
        <time>2023-03-25T09:21:59Z</time>
      </trkpt>
      <trkpt lat="47.28093" lon="-2.25794">
        <ele>4</ele>
        <time>2023-03-25T09:22:07Z</time>
      </trkpt>
      <trkpt lat="47.28087" lon="-2.25804">
        <ele>4.1</ele>
        <time>2023-03-25T09:22:15Z</time>
      </trkpt>
      <trkpt lat="47.28079" lon="-2.25814">
        <ele>3.8</ele>
        <time>2023-03-25T09:22:24Z</time>
      </trkpt>
      <trkpt lat="47.28071" lon="-2.25823">
        <ele>4</ele>
        <time>2023-03-25T09:22:31Z</time>
      </trkpt>
      <trkpt lat="47.28063" lon="-2.25828">
        <ele>4</ele>
        <time>2023-03-25T09:22:50Z</time>
      </trkpt>
      <trkpt lat="47.28056" lon="-2.2584">
        <ele>4</ele>
        <time>2023-03-25T09:23:21Z</time>
      </trkpt>
      <trkpt lat="47.28048" lon="-2.2585">
        <ele>3.9</ele>
        <time>2023-03-25T09:23:32Z</time>
      </trkpt>
      <trkpt lat="47.28041" lon="-2.2586">
        <ele>3.8</ele>
        <time>2023-03-25T09:23:39Z</time>
      </trkpt>
      <trkpt lat="47.28034" lon="-2.2587">
        <ele>3.6</ele>
        <time>2023-03-25T09:23:48Z</time>
      </trkpt>
      <trkpt lat="47.28027" lon="-2.2588">
        <ele>4</ele>
        <time>2023-03-25T09:23:56Z</time>
      </trkpt>
      <trkpt lat="47.2802" lon="-2.2589">
        <ele>4.2</ele>
        <time>2023-03-25T09:24:03Z</time>
      </trkpt>
      <trkpt lat="47.28013" lon="-2.25901">
        <ele>4.4</ele>
        <time>2023-03-25T09:24:09Z</time>
      </trkpt>
      <trkpt lat="47.28007" lon="-2.2591">
        <ele>4.2</ele>
        <time>2023-03-25T09:24:15Z</time>
      </trkpt>
      <trkpt lat="47.28" lon="-2.2592">
        <ele>4.2</ele>
        <time>2023-03-25T09:24:21Z</time>
      </trkpt>
      <trkpt lat="47.27995" lon="-2.25933">
        <ele>4.3</ele>
        <time>2023-03-25T09:24:28Z</time>
      </trkpt>
      <trkpt lat="47.27989" lon="-2.25945">
        <ele>4.1</ele>
        <time>2023-03-25T09:24:36Z</time>
      </trkpt>
      <trkpt lat="47.27984" lon="-2.25956">
        <ele>4.6</ele>
        <time>2023-03-25T09:24:42Z</time>
      </trkpt>
      <trkpt lat="47.2798" lon="-2.25969">
        <ele>4.4</ele>
        <time>2023-03-25T09:24:52Z</time>
      </trkpt>
      <trkpt lat="47.27975" lon="-2.25981">
        <ele>4.6</ele>
        <time>2023-03-25T09:25:04Z</time>
      </trkpt>
      <trkpt lat="47.2797" lon="-2.25993">
        <ele>4.9</ele>
        <time>2023-03-25T09:25:52Z</time>
      </trkpt>
      <trkpt lat="47.27969" lon="-2.26007">
        <ele>4.6</ele>
        <time>2023-03-25T09:26:05Z</time>
      </trkpt>
      <trkpt lat="47.27966" lon="-2.2602">
        <ele>4.7</ele>
        <time>2023-03-25T09:26:17Z</time>
      </trkpt>
      <trkpt lat="47.27964" lon="-2.26034">
        <ele>4.5</ele>
        <time>2023-03-25T09:26:36Z</time>
      </trkpt>
      <trkpt lat="47.27965" lon="-2.26047">
        <ele>4</ele>
        <time>2023-03-25T09:27:18Z</time>
      </trkpt>
      <trkpt lat="47.27957" lon="-2.26055">
        <ele>4.3</ele>
        <time>2023-03-25T09:27:29Z</time>
      </trkpt>
      <trkpt lat="47.27948" lon="-2.26053">
        <ele>3.9</ele>
        <time>2023-03-25T09:27:48Z</time>
      </trkpt>
      <trkpt lat="47.27953" lon="-2.26065">
        <ele>3.2</ele>
        <time>2023-03-25T09:28:07Z</time>
      </trkpt>
      <trkpt lat="47.27956" lon="-2.26079">
        <ele>2.6</ele>
        <time>2023-03-25T09:28:20Z</time>
      </trkpt>
      <trkpt lat="47.27957" lon="-2.26094">
        <ele>3</ele>
        <time>2023-03-25T09:28:28Z</time>
      </trkpt>
      <trkpt lat="47.27957" lon="-2.26108">
        <ele>2.6</ele>
        <time>2023-03-25T09:28:36Z</time>
      </trkpt>
      <trkpt lat="47.27956" lon="-2.26122">
        <ele>2.4</ele>
        <time>2023-03-25T09:28:44Z</time>
      </trkpt>
      <trkpt lat="47.27956" lon="-2.26135">
        <ele>3</ele>
        <time>2023-03-25T09:28:52Z</time>
      </trkpt>
      <trkpt lat="47.27958" lon="-2.26149">
        <ele>2.9</ele>
        <time>2023-03-25T09:29:03Z</time>
      </trkpt>
      <trkpt lat="47.27957" lon="-2.26163">
        <ele>3</ele>
        <time>2023-03-25T09:29:11Z</time>
      </trkpt>
      <trkpt lat="47.27955" lon="-2.26176">
        <ele>2.8</ele>
        <time>2023-03-25T09:29:19Z</time>
      </trkpt>
      <trkpt lat="47.27952" lon="-2.2619">
        <ele>3</ele>
        <time>2023-03-25T09:29:26Z</time>
      </trkpt>
      <trkpt lat="47.27949" lon="-2.26203">
        <ele>3</ele>
        <time>2023-03-25T09:29:34Z</time>
      </trkpt>
      <trkpt lat="47.27949" lon="-2.26217">
        <ele>3.4</ele>
        <time>2023-03-25T09:29:42Z</time>
      </trkpt>
      <trkpt lat="47.27947" lon="-2.26223">
        <ele>3.8</ele>
        <time>2023-03-25T09:29:48Z</time>
      </trkpt>
    </trkseg>
  </trk>
</gpx>